Observation data for Lesley on 01/18/2019      Previous  Date  Next       Current Mesonet Observations  Soil Data  Daily Summary Page  Observations in Plain Language
KLE1 180600Z 12008KT 05/02 A2999 RMK A01 T00490022  RH  083%=      5-min Rain = 0
KLE1 180601Z 12007KT 05/02 A2999 RMK A01 T00490023  RH  083%=      5-min Rain = 0
KLE1 180602Z 12007KT 05/02 A2999 RMK A01 T00490023  RH  083%=      5-min Rain = 0
KLE1 180603Z 11006KT 05/02 A2999 RMK A01 T00490020  RH  082%=      5-min Rain = 0
KLE1 180604Z 11005KT 05/02 A2999 RMK A01 T00460016  RH  081%=      5-min Rain = 0
KLE1 180605Z 11005KT 04/02 A2999 RMK A01 T00440016  RH  082%=      5-min Rain = 0
KLE1 180606Z 10005KT 04/02 A2999 RMK A01 T00430017  RH  083%=      5-min Rain = 0
KLE1 180607Z 09005KT 04/02 A2999 RMK A01 T00430018  RH  084%=      5-min Rain = 0
KLE1 180608Z 09005KT 04/02 A2999 RMK A01 T00430018  RH  084%=      5-min Rain = 0
KLE1 180609Z 09005KT 04/02 A2999 RMK A01 T00430019  RH  085%=      5-min Rain = 0
KLE1 180610Z 09005KT 04/02 A2999 RMK A01 T00440021  RH  085%=      5-min Rain = 0
KLE1 180611Z 10005KT 05/02 A2999 RMK A01 T00460023  RH  085%=      5-min Rain = 0
KLE1 180612Z 09005KT 05/02 A2999 RMK A01 T00470023  RH  084%=      5-min Rain = 0
KLE1 180613Z 09005KT 05/02 A2999 RMK A01 T00470022  RH  084%=      5-min Rain = 0
KLE1 180614Z 08004KT 05/02 A2999 RMK A01 T00470022  RH  084%=      5-min Rain = 0
KLE1 180615Z 09005KT 05/02 A2999 RMK A01 T00470022  RH  084%=      5-min Rain = 0
KLE1 180616Z 09005KT 05/02 A2999 RMK A01 T00470022  RH  084%=      5-min Rain = 0
KLE1 180617Z 09004KT 05/02 A2999 RMK A01 T00470023  RH  084%=      5-min Rain = 0
KLE1 180618Z 09005KT 05/02 A2999 RMK A01 T00480024  RH  084%=      5-min Rain = 0
KLE1 180619Z 10005KT 05/02 A2999 RMK A01 T00490024  RH  084%=      5-min Rain = 0
KLE1 180620Z 10006KT 05/03 A2999 RMK A01 T00500025  RH  084%=      5-min Rain = 0
KLE1 180621Z 10006KT 05/03 A2998 RMK A01 T00510026  RH  084%=      5-min Rain = 0
KLE1 180622Z 11006KT 05/03 A2998 RMK A01 T00520026  RH  083%=      5-min Rain = 0
KLE1 180623Z 11006KT 05/03 A2998 RMK A01 T00530027  RH  083%=      5-min Rain = 0
KLE1 180624Z 11006KT 05/03 A2998 RMK A01 T00540026  RH  083%=      5-min Rain = 0
KLE1 180625Z 11006KT 05/03 A2998 RMK A01 T00540027  RH  082%=      5-min Rain = 0
KLE1 180626Z 11006KT 05/03 A2998 RMK A01 T00540026  RH  082%=      5-min Rain = 0
KLE1 180627Z 11006KT 05/03 A2998 RMK A01 T00540026  RH  082%=      5-min Rain = 0
KLE1 180628Z 11007KT 05/03 A2998 RMK A01 T00540025  RH  082%=      5-min Rain = 0
KLE1 180629Z 11007KT 05/02 A2998 RMK A01 T00530024  RH  082%=      5-min Rain = 0
KLE1 180630Z 11007KT 05/03 A2998 RMK A01 T00520025  RH  083%=      5-min Rain = 0
KLE1 180631Z 11007KT 05/03 A2998 RMK A01 T00520026  RH  083%=      5-min Rain = 0
KLE1 180632Z 11006KT 05/03 A2998 RMK A01 T00530027  RH  083%=      5-min Rain = 0
KLE1 180633Z 12007KT 05/03 A2998 RMK A01 T00540027  RH  083%=      5-min Rain = 0
KLE1 180634Z 11007KT 05/03 A2998 RMK A01 T00540026  RH  083%=      5-min Rain = 0
KLE1 180635Z 11007KT 05/03 A2997 RMK A01 T00540026  RH  083%=      5-min Rain = 0
KLE1 180636Z 11007KT 05/03 A2997 RMK A01 T00530026  RH  083%=      5-min Rain = 0
KLE1 180637Z 11006KT 05/03 A2997 RMK A01 T00530026  RH  083%=      5-min Rain = 0
KLE1 180638Z 11006KT 05/03 A2997 RMK A01 T00530026  RH  083%=      5-min Rain = 0
KLE1 180639Z 10005KT 05/03 A2997 RMK A01 T00520025  RH  083%=      5-min Rain = 0
KLE1 180640Z 10006KT 05/02 A2997 RMK A01 T00500022  RH  082%=      5-min Rain = 0
KLE1 180641Z 11007KT 05/02 A2997 RMK A01 T00490022  RH  083%=      5-min Rain = 0
KLE1 180642Z 11007KT 05/02 A2997 RMK A01 T00480023  RH  084%=      5-min Rain = 0
KLE1 180643Z 11007KT 05/02 A2997 RMK A01 T00470022  RH  084%=      5-min Rain = 0
KLE1 180644Z 11007KT 05/02 A2997 RMK A01 T00470023  RH  084%=      5-min Rain = 0
KLE1 180645Z 10007KT 05/02 A2997 RMK A01 T00470023  RH  085%=      5-min Rain = 0
KLE1 180646Z 10007KT 05/02 A2997 RMK A01 T00470024  RH  085%=      5-min Rain = 0
KLE1 180647Z 10006KT 05/02 A2997 RMK A01 T00470024  RH  085%=      5-min Rain = 0
KLE1 180648Z 09006KT 05/02 A2997 RMK A01 T00460023  RH  085%=      5-min Rain = 0
KLE1 180649Z 09006KT 05/02 A2997 RMK A01 T00460022  RH  084%=      5-min Rain = 0
KLE1 180650Z 09006KT 05/02 A2997 RMK A01 T00450021  RH  085%=      5-min Rain = 0
KLE1 180651Z 08006KT 05/02 A2997 RMK A01 T00450022  RH  085%=      5-min Rain = 0
KLE1 180652Z 07006KT 05/02 A2997 RMK A01 T00450021  RH  085%=      5-min Rain = 0
KLE1 180653Z 08007KT 04/02 A2996 RMK A01 T00440019  RH  084%=      5-min Rain = 0
KLE1 180654Z 08008KT 04/02 A2996 RMK A01 T00430019  RH  085%=      5-min Rain = 0
KLE1 180655Z 08008KT 04/02 A2996 RMK A01 T00420020  RH  086%=      5-min Rain = 0
KLE1 180656Z 09009KT 04/02 A2996 RMK A01 T00410020  RH  086%=      5-min Rain = 0
KLE1 180657Z 09010KT 04/02 A2996 RMK A01 T00400020  RH  087%=      5-min Rain = 0
KLE1 180658Z 09010KT 04/02 A2996 RMK A01 T00400021  RH  088%=      5-min Rain = 0
KLE1 180659Z 09011KT 04/02 A2996 RMK A01 T00400022  RH  088%=      5-min Rain = 0
KLE1 180700Z 10011KT 04/02 A2996 RMK A01 T00400023  RH  088%=      5-min Rain = 0
KLE1 180701Z 10011KT 04/03 A2996 RMK A01 T00420025  RH  089%=      5-min Rain = 0
KLE1 180702Z 10011KT 04/03 A2996 RMK A01 T00430025  RH  088%=      5-min Rain = 0
KLE1 180703Z 10011KT 04/03 A2996 RMK A01 T00440026  RH  088%=      5-min Rain = 0
KLE1 180704Z 10011KT 05/03 A2996 RMK A01 T00450027  RH  088%=      5-min Rain = 0
KLE1 180705Z 10011KT 05/03 A2996 RMK A01 T00460027  RH  087%=      5-min Rain = 0
KLE1 180706Z 10011KT 05/03 A2996 RMK A01 T00460026  RH  087%=      5-min Rain = 0
KLE1 180707Z 10011KT 05/03 A2996 RMK A01 T00470027  RH  087%=      5-min Rain = 0
KLE1 180708Z 10010KT 05/03 A2996 RMK A01 T00480028  RH  087%=      5-min Rain = 0
KLE1 180709Z 09011KT 05/03 A2996 RMK A01 T00490029  RH  087%=      5-min Rain = 0
KLE1 180710Z 09011KT 05/03 A2996 RMK A01 T00500030  RH  087%=      5-min Rain = 0
KLE1 180711Z 09010KT 05/03 A2996 RMK A01 T00500030  RH  087%=      5-min Rain = 0
KLE1 180712Z 09010KT 05/03 A2996 RMK A01 T00510030  RH  086%=      5-min Rain = 0
KLE1 180713Z 08009KT 05/03 A2996 RMK A01 T00500028  RH  086%=      5-min Rain = 0
KLE1 180714Z 09009KT 05/03 A2996 RMK A01 T00480027  RH  086%=      5-min Rain = 0
KLE1 180715Z 09009KT 05/03 A2996 RMK A01 T00470026  RH  087%=      5-min Rain = 0
KLE1 180716Z 09009KT 05/03 A2996 RMK A01 T00460026  RH  087%=      5-min Rain = 0
KLE1 180717Z 09009KT 05/03 A2996 RMK A01 T00450026  RH  088%=      5-min Rain = 0
KLE1 180718Z 08009KT 05/03 A2996 RMK A01 T00450026  RH  088%=      5-min Rain = 0
KLE1 180719Z 09009KT 04/03 A2995 RMK A01 T00440026  RH  088%=      5-min Rain = 0
KLE1 180720Z 09009KT 04/03 A2995 RMK A01 T00440027  RH  088%=      5-min Rain = 0
KLE1 180721Z 09009KT 04/03 A2995 RMK A01 T00440027  RH  089%=      5-min Rain = 0
KLE1 180722Z 09009KT 04/03 A2995 RMK A01 T00440027  RH  089%=      5-min Rain = 0
KLE1 180723Z 08008KT 04/03 A2995 RMK A01 T00440027  RH  089%=      5-min Rain = 0
KLE1 180724Z 08008KT 04/03 A2995 RMK A01 T00440026  RH  089%=      5-min Rain = 0
KLE1 180725Z 08008KT 04/03 A2995 RMK A01 T00430026  RH  089%=      5-min Rain = 0
KLE1 180726Z 08008KT 04/03 A2995 RMK A01 T00420025  RH  089%=      5-min Rain = 0
KLE1 180727Z 08008KT 04/03 A2995 RMK A01 T00420025  RH  089%=      5-min Rain = 0
KLE1 180728Z 08008KT 04/03 A2995 RMK A01 T00410025  RH  089%=      5-min Rain = 0
KLE1 180729Z 08008KT 04/03 A2995 RMK A01 T00410025  RH  089%=      5-min Rain = 0
KLE1 180730Z 08008KT 04/03 A2995 RMK A01 T00400025  RH  090%=      5-min Rain = 0
KLE1 180731Z 08008KT 04/03 A2995 RMK A01 T00400026  RH  090%=      5-min Rain = 0
KLE1 180732Z 08008KT 04/03 A2995 RMK A01 T00410026  RH  090%=      5-min Rain = 0
KLE1 180733Z 08008KT 04/03 A2995 RMK A01 T00400026  RH  090%=      5-min Rain = 0
KLE1 180734Z 08008KT 04/03 A2995 RMK A01 T00400026  RH  090%=      5-min Rain = 0
KLE1 180735Z 08007KT 04/03 A2995 RMK A01 T00410026  RH  090%=      5-min Rain = 0
KLE1 180736Z 09008KT 04/03 A2995 RMK A01 T00400026  RH  090%=      5-min Rain = 0
KLE1 180737Z 09007KT 04/03 A2995 RMK A01 T00400025  RH  090%=      5-min Rain = 0
KLE1 180738Z 09008KT 04/03 A2995 RMK A01 T00400025  RH  090%=      5-min Rain = 0
KLE1 180739Z 10008KT 04/03 A2995 RMK A01 T00400025  RH  090%=      5-min Rain = 0
KLE1 180740Z 10008KT 04/03 A2995 RMK A01 T00400025  RH  090%=      5-min Rain = 0
KLE1 180741Z 10008KT 04/03 A2995 RMK A01 T00400025  RH  090%=      5-min Rain = 0
KLE1 180742Z 10008KT 04/03 A2995 RMK A01 T00400025  RH  090%=      5-min Rain = 0
KLE1 180743Z 10008KT 04/03 A2995 RMK A01 T00400026  RH  090%=      5-min Rain = 0
KLE1 180744Z 10008KT 04/03 A2994 RMK A01 T00400026  RH  090%=      5-min Rain = 0
KLE1 180745Z 11008KT 04/03 A2994 RMK A01 T00410026  RH  090%=      5-min Rain = 0
KLE1 180746Z 11008KT 04/03 A2994 RMK A01 T00410026  RH  090%=      5-min Rain = 0
KLE1 180747Z 11008KT 04/03 A2994 RMK A01 T00410026  RH  090%=      5-min Rain = 0
KLE1 180748Z 11008KT 04/03 A2994 RMK A01 T00410026  RH  090%=      5-min Rain = 0
KLE1 180749Z 11008KT 04/03 A2994 RMK A01 T00410026  RH  090%=      5-min Rain = 0
KLE1 180750Z 12008KT 04/03 A2994 RMK A01 T00410025  RH  090%=      5-min Rain = 0
KLE1 180751Z 12008KT 04/03 A2994 RMK A01 T00400025  RH  090%=      5-min Rain = 0
KLE1 180752Z 12008KT 04/03 A2994 RMK A01 T00410026  RH  090%=      5-min Rain = 0
KLE1 180753Z 12009KT 04/03 A2993 RMK A01 T00410026  RH  090%=      5-min Rain = 0
KLE1 180754Z 12008KT 04/03 A2993 RMK A01 T00410026  RH  090%=      5-min Rain = 0
KLE1 180755Z 12008KT 04/03 A2993 RMK A01 T00410026  RH  090%=      5-min Rain = 0
KLE1 180756Z 12008KT 04/03 A2994 RMK A01 T00420027  RH  090%=      5-min Rain = 0
KLE1 180757Z 11008KT 04/03 A2993 RMK A01 T00420027  RH  090%=      5-min Rain = 0
KLE1 180758Z 11008KT 04/03 A2994 RMK A01 T00430027  RH  090%=      5-min Rain = 0
KLE1 180759Z 11008KT 04/03 A2993 RMK A01 T00430027  RH  089%=      5-min Rain = 0
KLE1 180800Z 11008KT 04/03 A2993 RMK A01 T00430027  RH  089%=      5-min Rain = 0
KLE1 180801Z 11007KT 04/03 A2993 RMK A01 T00440027  RH  089%=      5-min Rain = 0
KLE1 180802Z 11007KT 04/03 A2993 RMK A01 T00440027  RH  089%=      5-min Rain = 0
KLE1 180803Z 11007KT 04/03 A2993 RMK A01 T00440027  RH  089%=      5-min Rain = 0
KLE1 180804Z 12008KT 04/03 A2993 RMK A01 T00430026  RH  089%=      5-min Rain = 0
KLE1 180805Z 12008KT 04/03 A2993 RMK A01 T00430026  RH  089%=      5-min Rain = 0
KLE1 180806Z 12008KT 04/03 A2993 RMK A01 T00420026  RH  089%=      5-min Rain = 0
KLE1 180807Z 12007KT 04/03 A2993 RMK A01 T00420026  RH  089%=      5-min Rain = 0
KLE1 180808Z 11007KT 04/03 A2993 RMK A01 T00420027  RH  090%=      5-min Rain = 0
KLE1 180809Z 11007KT 04/03 A2992 RMK A01 T00420027  RH  089%=      5-min Rain = 0
KLE1 180810Z 11007KT 04/03 A2992 RMK A01 T00420026  RH  089%=      5-min Rain = 0
KLE1 180811Z 11007KT 04/03 A2992 RMK A01 T00420026  RH  089%=      5-min Rain = 0
KLE1 180812Z 11007KT 04/03 A2992 RMK A01 T00420025  RH  089%=      5-min Rain = 0
KLE1 180813Z 11006KT 04/02 A2992 RMK A01 T00410024  RH  089%=      5-min Rain = 0
KLE1 180814Z 10007KT 04/02 A2992 RMK A01 T00400024  RH  089%=      5-min Rain = 0
KLE1 180815Z 10007KT 04/02 A2992 RMK A01 T00400024  RH  090%=      5-min Rain = 0
KLE1 180816Z 10006KT 04/02 A2992 RMK A01 T00400024  RH  090%=      5-min Rain = 0
KLE1 180817Z 10006KT 04/02 A2992 RMK A01 T00390024  RH  090%=      5-min Rain = 0
KLE1 180818Z 09007KT 04/02 A2991 RMK A01 T00390024  RH  090%=      5-min Rain = 0
KLE1 180819Z 10007KT 04/02 A2991 RMK A01 T00390024  RH  090%=      5-min Rain = 0
KLE1 180820Z 10007KT 04/02 A2991 RMK A01 T00380023  RH  090%=      5-min Rain = 0
KLE1 180821Z 10007KT 04/02 A2991 RMK A01 T00380024  RH  090%=      5-min Rain = 0
KLE1 180822Z 10007KT 04/02 A2991 RMK A01 T00380023  RH  090%=      5-min Rain = 0
KLE1 180823Z 10007KT 04/02 A2991 RMK A01 T00380024  RH  091%=      5-min Rain = 0
KLE1 180824Z 09006KT 04/02 A2991 RMK A01 T00380024  RH  091%=      5-min Rain = 0
KLE1 180825Z 09006KT 04/02 A2991 RMK A01 T00380024  RH  091%=      5-min Rain = 0
KLE1 180826Z 09006KT 04/02 A2991 RMK A01 T00370022  RH  090%=      5-min Rain = 0
KLE1 180827Z 09006KT 04/02 A2991 RMK A01 T00370023  RH  091%=      5-min Rain = 0
KLE1 180828Z 08006KT 04/02 A2991 RMK A01 T00370023  RH  091%=      5-min Rain = 0
KLE1 180829Z 09006KT 04/02 A2991 RMK A01 T00370024  RH  091%=      5-min Rain = 0
KLE1 180830Z 09006KT 04/02 A2991 RMK A01 T00370023  RH  091%=      5-min Rain = 0
KLE1 180831Z 09006KT 04/02 A2991 RMK A01 T00370024  RH  091%=      5-min Rain = 0
KLE1 180832Z 09006KT 04/03 A2991 RMK A01 T00380025  RH  092%=      5-min Rain = 0
KLE1 180833Z 09006KT 04/03 A2991 RMK A01 T00390026  RH  092%=      5-min Rain = 0
KLE1 180834Z 09005KT 04/03 A2991 RMK A01 T00400027  RH  091%=      5-min Rain = 0
KLE1 180835Z 08005KT 04/03 A2991 RMK A01 T00400027  RH  091%=      5-min Rain = 0
KLE1 180836Z 08005KT 04/03 A2991 RMK A01 T00400026  RH  091%=      5-min Rain = 0
KLE1 180837Z 07005KT 04/03 A2991 RMK A01 T00400026  RH  091%=      5-min Rain = 0
KLE1 180838Z 08004KT 04/03 A2991 RMK A01 T00410027  RH  091%=      5-min Rain = 0
KLE1 180839Z 07004KT 04/03 A2991 RMK A01 T00410028  RH  091%=      5-min Rain = 0
KLE1 180840Z 08003KT 04/03 A2991 RMK A01 T00430029  RH  091%=      5-min Rain = 0
KLE1 180841Z 08004KT 04/03 A2991 RMK A01 T00430029  RH  091%=      5-min Rain = 0
KLE1 180842Z 09004KT 04/03 A2991 RMK A01 T00440029  RH  090%=      5-min Rain = 0
KLE1 180843Z 10004KT 04/03 A2991 RMK A01 T00440029  RH  090%=      5-min Rain = 0
KLE1 180844Z 10005KT 05/03 A2991 RMK A01 T00450029  RH  090%=      5-min Rain = 0
KLE1 180845Z 10005KT 04/03 A2991 RMK A01 T00440028  RH  089%=      5-min Rain = 0
KLE1 180846Z 11005KT 05/03 A299 RMK A01 T00450029  RH  090%=      5-min Rain = 0
KLE1 180847Z 10006KT 05/03 A299 RMK A01 T00450029  RH  089%=      5-min Rain = 0
KLE1 180848Z 10006KT 05/03 A299 RMK A01 T00450028  RH  089%=      5-min Rain = 0
KLE1 180849Z 10006KT 05/03 A299 RMK A01 T00450029  RH  089%=      5-min Rain = 0
KLE1 180850Z 11006KT 05/03 A299 RMK A01 T00450028  RH  089%=      5-min Rain = 0
KLE1 180851Z 10006KT 05/03 A299 RMK A01 T00450029  RH  089%=      5-min Rain = 0
KLE1 180852Z 11006KT 04/03 A299 RMK A01 T00440028  RH  089%=      5-min Rain = 0
KLE1 180853Z 09005KT 04/03 A299 RMK A01 T00440029  RH  090%=      5-min Rain = 0
KLE1 180854Z 10005KT 04/03 A299 RMK A01 T00440028  RH  089%=      5-min Rain = 0
KLE1 180855Z 09005KT 04/03 A299 RMK A01 T00440028  RH  089%=      5-min Rain = 0
KLE1 180856Z 09005KT 04/03 A299 RMK A01 T00440029  RH  089%=      5-min Rain = 0
KLE1 180857Z 08004KT 05/03 A299 RMK A01 T00450029  RH  089%=      5-min Rain = 0
KLE1 180858Z 08004KT 04/03 A299 RMK A01 T00440028  RH  089%=      5-min Rain = 0
KLE1 180859Z 08006KT 04/03 A299 RMK A01 T00440028  RH  089%=      5-min Rain = 0
KLE1 180900Z 09004KT 04/03 A299 RMK A01 T00440027  RH  089%=      5-min Rain = 0
KLE1 180901Z 07005KT 04/03 A299 RMK A01 T00420026  RH  089%=      5-min Rain = 0
KLE1 180902Z 07005KT 04/03 A299 RMK A01 T00420027  RH  090%=      5-min Rain = 0
KLE1 180903Z 07004KT 04/03 A299 RMK A01 T00410026  RH  089%=      5-min Rain = 0
KLE1 180904Z 05004KT 04/02 A299 RMK A01 T00400024  RH  089%=      5-min Rain = 0
KLE1 180905Z 06004KT 04/02 A299 RMK A01 T00390021  RH  089%=      5-min Rain = 0
KLE1 180906Z 06004KT 04/02 A299 RMK A01 T00360019  RH  089%=      5-min Rain = 0
KLE1 180907Z 07003KT 04/02 A299 RMK A01 T00360022  RH  090%=      5-min Rain = 0
KLE1 180908Z 07004KT 04/02 A299 RMK A01 T00360023  RH  091%=      5-min Rain = 0
KLE1 180909Z 08004KT 04/03 A299 RMK A01 T00370025  RH  092%=      5-min Rain = 0
KLE1 180910Z 08004KT 04/03 A299 RMK A01 T00370025  RH  092%=      5-min Rain = 0
KLE1 180911Z 08004KT 04/03 A299 RMK A01 T00380025  RH  091%=      5-min Rain = 0
KLE1 180912Z 08005KT 04/02 A299 RMK A01 T00380024  RH  091%=      5-min Rain = 0
KLE1 180913Z 07005KT 04/03 A299 RMK A01 T00380025  RH  091%=      5-min Rain = 0
KLE1 180914Z 08004KT 04/02 A299 RMK A01 T00380023  RH  090%=      5-min Rain = 0
KLE1 180915Z 08005KT 04/02 A299 RMK A01 T00360021  RH  090%=      5-min Rain = 0
KLE1 180916Z 06005KT 04/02 A2989 RMK A01 T00350020  RH  090%=      5-min Rain = 0
KLE1 180917Z 05005KT 03/02 A2989 RMK A01 T00340021  RH  091%=      5-min Rain = 0
KLE1 180918Z 06005KT 03/02 A299 RMK A01 T00340021  RH  091%=      5-min Rain = 0
KLE1 180919Z 05005KT 03/02 A299 RMK A01 T00330020  RH  091%=      5-min Rain = 0
KLE1 180920Z 04006KT 03/02 A299 RMK A01 T00330020  RH  091%=      5-min Rain = 0
KLE1 180921Z 03005KT 03/02 A299 RMK A01 T00320019  RH  091%=      5-min Rain = 0
KLE1 180922Z 04006KT 03/02 A299 RMK A01 T00310018  RH  091%=      5-min Rain = 0
KLE1 180923Z 05006KT 03/02 A299 RMK A01 T00300017  RH  091%=      5-min Rain = 0
KLE1 180924Z 06006KT 03/02 A2989 RMK A01 T00280016  RH  092%=      5-min Rain = 0
KLE1 180925Z 07006KT 03/02 A2989 RMK A01 T00270015  RH  092%=      5-min Rain = 0
KLE1 180926Z 07006KT 03/02 A2989 RMK A01 T00260016  RH  093%=      5-min Rain = 0
KLE1 180927Z 07006KT 03/02 A2989 RMK A01 T00260016  RH  093%=      5-min Rain = 0
KLE1 180928Z 07007KT 03/02 A2988 RMK A01 T00270018  RH  094%=      5-min Rain = 0
KLE1 180929Z 07007KT 03/02 A2988 RMK A01 T00270019  RH  094%=      5-min Rain = 0
KLE1 180930Z 07007KT 03/02 A2988 RMK A01 T00280020  RH  095%=      5-min Rain = 0
KLE1 180931Z 07007KT 03/02 A2988 RMK A01 T00280020  RH  094%=      5-min Rain = 0
KLE1 180932Z 07006KT 03/02 A2988 RMK A01 T00270019  RH  094%=      5-min Rain = 0
KLE1 180933Z 06006KT 03/02 A2988 RMK A01 T00270018  RH  094%=      5-min Rain = 0
KLE1 180934Z 05006KT 03/02 A2988 RMK A01 T00260017  RH  094%=      5-min Rain = 0
KLE1 180935Z 05006KT 03/02 A2988 RMK A01 T00250016  RH  094%=      5-min Rain = 0
KLE1 180936Z 05006KT 03/02 A2988 RMK A01 T00250015  RH  094%=      5-min Rain = 0
KLE1 180937Z 05006KT 02/02 A2988 RMK A01 T00240015  RH  094%=      5-min Rain = 0
KLE1 180938Z 05006KT 02/02 A2988 RMK A01 T00240015  RH  094%=      5-min Rain = 0
KLE1 180939Z 06006KT 02/02 A2988 RMK A01 T00240016  RH  095%=      5-min Rain = 0
KLE1 180940Z 06006KT 02/02 A2988 RMK A01 T00240017  RH  095%=      5-min Rain = 0
KLE1 180941Z 06005KT 02/02 A2988 RMK A01 T00240017  RH  095%=      5-min Rain = 0
KLE1 180942Z 05006KT 03/02 A2988 RMK A01 T00250018  RH  095%=      5-min Rain = 0
KLE1 180943Z 03005KT 03/02 A2988 RMK A01 T00250018  RH  096%=      5-min Rain = 0
KLE1 180944Z 02006KT 03/02 A2988 RMK A01 T00250018  RH  095%=      5-min Rain = 0
KLE1 180945Z 02006KT 02/02 A2988 RMK A01 T00240017  RH  095%=      5-min Rain = 0
KLE1 180946Z 04006KT 02/02 A2988 RMK A01 T00230016  RH  095%=      5-min Rain = 0
KLE1 180947Z 04006KT 02/02 A2988 RMK A01 T00230016  RH  095%=      5-min Rain = 0
KLE1 180948Z 04006KT 02/02 A2988 RMK A01 T00240017  RH  095%=      5-min Rain = 0
KLE1 180949Z 04005KT 02/02 A2988 RMK A01 T00230017  RH  095%=      5-min Rain = 0
KLE1 180950Z 05005KT 02/02 A2988 RMK A01 T00230017  RH  095%=      5-min Rain = 0
KLE1 180951Z 06005KT 02/02 A2988 RMK A01 T00230016  RH  095%=      5-min Rain = 0
KLE1 180952Z 06005KT 02/02 A2988 RMK A01 T00230017  RH  096%=      5-min Rain = 0
KLE1 180953Z 05004KT 02/02 A2988 RMK A01 T00240018  RH  096%=      5-min Rain = 0
KLE1 180954Z 04004KT 02/02 A2988 RMK A01 T00240018  RH  096%=      5-min Rain = 0
KLE1 180955Z 06004KT 02/02 A2988 RMK A01 T00240018  RH  096%=      5-min Rain = 0
KLE1 180956Z 08005KT 02/02 A2988 RMK A01 T00240018  RH  096%=      5-min Rain = 0
KLE1 180957Z 08005KT 02/02 A2988 RMK A01 T00240018  RH  096%=      5-min Rain = 0
KLE1 180958Z 07005KT 03/02 A2988 RMK A01 T00260020  RH  096%=      5-min Rain = 0
KLE1 180959Z 06003KT 03/02 A2988 RMK A01 T00260020  RH  096%=      5-min Rain = 0
KLE1 181000Z 03004KT 03/02 A2988 RMK A01 T00260020  RH  096%=      5-min Rain = 0
KLE1 181001Z 02004KT 03/02 A2988 RMK A01 T00250019  RH  095%=      5-min Rain = 0
KLE1 181002Z 05004KT 02/02 A2988 RMK A01 T00240016  RH  095%=      5-min Rain = 0
KLE1 181003Z 03003KT 02/02 A2988 RMK A01 T00230016  RH  095%=      5-min Rain = 0
KLE1 181004Z 04003KT 02/02 A2988 RMK A01 T00240018  RH  095%=      5-min Rain = 0
KLE1 181005Z 06003KT 03/02 A2988 RMK A01 T00260020  RH  096%=      5-min Rain = 0
KLE1 181006Z 10002KT 03/02 A2988 RMK A01 T00280023  RH  097%=      5-min Rain = 0
KLE1 181007Z 10003KT 03/03 A2987 RMK A01 T00300025  RH  097%=      5-min Rain = 0
KLE1 181008Z 09003KT 03/03 A2987 RMK A01 T00320028  RH  097%=      5-min Rain = 0
KLE1 181009Z 10004KT 03/03 A2987 RMK A01 T00340030  RH  097%=      5-min Rain = 0
KLE1 181010Z 10004KT 04/03 A2987 RMK A01 T00350030  RH  096%=      5-min Rain = 0
KLE1 181011Z 10004KT 04/03 A2986 RMK A01 T00360030  RH  096%=      5-min Rain = 0
KLE1 181012Z 09004KT 04/03 A2986 RMK A01 T00370029  RH  095%=      5-min Rain = 0
KLE1 181013Z 09004KT 04/03 A2986 RMK A01 T00360027  RH  094%=      5-min Rain = 0
KLE1 181014Z 09004KT 04/03 A2986 RMK A01 T00360026  RH  093%=      5-min Rain = 0
KLE1 181015Z 07004KT 04/03 A2986 RMK A01 T00350025  RH  093%=      5-min Rain = 0
KLE1 181016Z 05004KT 03/02 A2986 RMK A01 T00340023  RH  093%=      5-min Rain = 0
KLE1 181017Z 05003KT 03/02 A2986 RMK A01 T00330022  RH  093%=      5-min Rain = 0
KLE1 181018Z 06003KT 03/02 A2986 RMK A01 T00320022  RH  093%=      5-min Rain = 0
KLE1 181019Z 07004KT 03/02 A2986 RMK A01 T00320023  RH  094%=      5-min Rain = 0
KLE1 181020Z 08004KT 03/02 A2986 RMK A01 T00320024  RH  094%=      5-min Rain = 0
KLE1 181021Z 09004KT 03/02 A2985 RMK A01 T00320023  RH  094%=      5-min Rain = 0
KLE1 181022Z 10004KT 03/02 A2985 RMK A01 T00320023  RH  094%=      5-min Rain = 0
KLE1 181023Z 09004KT 03/02 A2985 RMK A01 T00320024  RH  094%=      5-min Rain = 0
KLE1 181024Z 09003KT 03/02 A2985 RMK A01 T00320024  RH  094%=      5-min Rain = 0
KLE1 181025Z 09003KT 03/02 A2985 RMK A01 T00320024  RH  094%=      5-min Rain = 0
KLE1 181026Z 09004KT 03/02 A2985 RMK A01 T00320024  RH  094%=      5-min Rain = 0
KLE1 181027Z 09003KT 03/02 A2985 RMK A01 T00320024  RH  095%=      5-min Rain = 0
KLE1 181028Z 09003KT 03/02 A2985 RMK A01 T00320024  RH  095%=      5-min Rain = 0
KLE1 181029Z 09003KT 03/03 A2985 RMK A01 T00330025  RH  095%=      5-min Rain = 0
KLE1 181030Z 10004KT 03/03 A2985 RMK A01 T00330025  RH  095%=      5-min Rain = 0
KLE1 181031Z 10004KT 03/03 A2985 RMK A01 T00330025  RH  095%=      5-min Rain = 0
KLE1 181032Z 10004KT 03/03 A2985 RMK A01 T00330025  RH  094%=      5-min Rain = 0
KLE1 181033Z 10004KT 03/02 A2985 RMK A01 T00330024  RH  094%=      5-min Rain = 0
KLE1 181034Z 10004KT 03/02 A2985 RMK A01 T00330024  RH  094%=      5-min Rain = 0
KLE1 181035Z 10004KT 03/02 A2985 RMK A01 T00320023  RH  094%=      5-min Rain = 0
KLE1 181036Z 09005KT 03/02 A2985 RMK A01 T00310022  RH  094%=      5-min Rain = 0
KLE1 181037Z 10005KT 03/02 A2985 RMK A01 T00300020  RH  094%=      5-min Rain = 0
KLE1 181038Z 10005KT 03/02 A2984 RMK A01 T00290020  RH  094%=      5-min Rain = 0
KLE1 181039Z 10006KT 03/02 A2984 RMK A01 T00270019  RH  094%=      5-min Rain = 0
KLE1 181040Z 09005KT 03/02 A2984 RMK A01 T00260018  RH  094%=      5-min Rain = 0
KLE1 181041Z 09005KT 03/02 A2984 RMK A01 T00260017  RH  094%=      5-min Rain = 0
KLE1 181042Z 08004KT 03/02 A2984 RMK A01 T00250017  RH  095%=      5-min Rain = 0
KLE1 181043Z 06004KT 02/02 A2985 RMK A01 T00240016  RH  095%=      5-min Rain = 0
KLE1 181044Z 04005KT 02/02 A2985 RMK A01 T00230015  RH  095%=      5-min Rain = 0
KLE1 181045Z 04005KT 02/01 A2985 RMK A01 T00220014  RH  095%=      5-min Rain = 0
KLE1 181046Z 04005KT 02/01 A2985 RMK A01 T00210013  RH  095%=      5-min Rain = 0
KLE1 181047Z 04005KT 02/01 A2985 RMK A01 T00200013  RH  095%=      5-min Rain = 0
KLE1 181048Z 02006KT 02/01 A2985 RMK A01 T00190012  RH  095%=      5-min Rain = 0
KLE1 181049Z 02007KT 02/01 A2985 RMK A01 T00170009  RH  095%=      5-min Rain = 0
KLE1 181050Z 03007KT 02/01 A2984 RMK A01 T00170009  RH  095%=      5-min Rain = 0
KLE1 181051Z 03007KT 02/01 A2984 RMK A01 T00160009  RH  095%=      5-min Rain = 0
KLE1 181052Z 04008KT 02/01 A2984 RMK A01 T00160009  RH  095%=      5-min Rain = 0
KLE1 181053Z 04007KT 02/01 A2984 RMK A01 T00160009  RH  095%=      5-min Rain = 0
KLE1 181054Z 05007KT 02/01 A2984 RMK A01 T00150009  RH  096%=      5-min Rain = 0
KLE1 181055Z 06007KT 02/01 A2984 RMK A01 T00160010  RH  096%=      5-min Rain = 0
KLE1 181056Z 06007KT 02/01 A2984 RMK A01 T00160011  RH  096%=      5-min Rain = 0
KLE1 181057Z 06007KT 02/01 A2984 RMK A01 T00170012  RH  096%=      5-min Rain = 0
KLE1 181058Z 06008KT 02/01 A2983 RMK A01 T00170012  RH  096%=      5-min Rain = 0
KLE1 181059Z 06008KT 02/01 A2983 RMK A01 T00170011  RH  096%=      5-min Rain = 0
KLE1 181100Z 06007KT 02/01 A2983 RMK A01 T00160011  RH  096%=      5-min Rain = 0
KLE1 181101Z 07006KT 02/01 A2983 RMK A01 T00160011  RH  096%=      5-min Rain = 0
KLE1 181102Z 07006KT 02/01 A2983 RMK A01 T00160011  RH  096%=      5-min Rain = 0
KLE1 181103Z 07007KT 02/01 A2983 RMK A01 T00160011  RH  096%=      5-min Rain = 0
KLE1 181104Z 07007KT 02/01 A2983 RMK A01 T00160011  RH  096%=      5-min Rain = 0
KLE1 181105Z 08007KT 02/01 A2983 RMK A01 T00160010  RH  096%=      5-min Rain = 0
KLE1 181106Z 08007KT 02/01 A2983 RMK A01 T00150010  RH  096%=      5-min Rain = 0
KLE1 181107Z 08007KT 02/01 A2983 RMK A01 T00150010  RH  096%=      5-min Rain = 0
KLE1 181108Z 08007KT 02/01 A2983 RMK A01 T00150010  RH  096%=      5-min Rain = 0
KLE1 181109Z 08007KT 02/01 A2982 RMK A01 T00150010  RH  096%=      5-min Rain = 0
KLE1 181110Z 08007KT 01/01 A2982 RMK A01 T00140009  RH  096%=      5-min Rain = 0
KLE1 181111Z 08007KT 01/01 A2982 RMK A01 T00140009  RH  096%=      5-min Rain = 0
KLE1 181112Z 08007KT 02/01 A2982 RMK A01 T00150010  RH  097%=      5-min Rain = 0
KLE1 181113Z 09007KT 02/01 A2982 RMK A01 T00150010  RH  097%=      5-min Rain = 0
KLE1 181114Z 09007KT 02/01 A2982 RMK A01 T00160011  RH  097%=      5-min Rain = 0
KLE1 181115Z 08007KT 02/01 A2982 RMK A01 T00170012  RH  097%=      5-min Rain = 0
KLE1 181116Z 09007KT 02/01 A2982 RMK A01 T00170013  RH  097%=      5-min Rain = 0
KLE1 181117Z 09007KT 02/01 A2982 RMK A01 T00180014  RH  097%=      5-min Rain = 0
KLE1 181118Z 09007KT 02/02 A2982 RMK A01 T00190015  RH  097%=      5-min Rain = 0
KLE1 181119Z 09007KT 02/02 A2981 RMK A01 T00200016  RH  097%=      5-min Rain = 0
KLE1 181120Z 09007KT 02/02 A2981 RMK A01 T00200016  RH  097%=      5-min Rain = 0
KLE1 181121Z 09006KT 02/02 A2981 RMK A01 T00210016  RH  097%=      5-min Rain = 0
KLE1 181122Z 09006KT 02/02 A2981 RMK A01 T00220017  RH  097%=      5-min Rain = 0
KLE1 181123Z 09006KT 02/02 A2981 RMK A01 T00220017  RH  097%=      5-min Rain = 0
KLE1 181124Z 08007KT 02/02 A2981 RMK A01 T00240019  RH  097%=      5-min Rain = 0
KLE1 181125Z 08007KT 02/02 A2981 RMK A01 T00240019  RH  096%=      5-min Rain = 0
KLE1 181126Z 08007KT 03/02 A2981 RMK A01 T00250019  RH  096%=      5-min Rain = 0
KLE1 181127Z 08007KT 03/02 A298 RMK A01 T00250019  RH  096%=      5-min Rain = 0
KLE1 181128Z 08007KT 03/02 A298 RMK A01 T00250018  RH  096%=      5-min Rain = 0
KLE1 181129Z 08007KT 03/02 A298 RMK A01 T00250018  RH  095%=      5-min Rain = 0
KLE1 181130Z 08007KT 03/02 A298 RMK A01 T00250018  RH  095%=      5-min Rain = 0
KLE1 181131Z 08007KT 03/02 A298 RMK A01 T00250018  RH  095%=      5-min Rain = 0
KLE1 181132Z 09008KT 02/02 A298 RMK A01 T00240017  RH  095%=      5-min Rain = 0
KLE1 181133Z 08008KT 02/02 A298 RMK A01 T00240017  RH  095%=      5-min Rain = 0
KLE1 181134Z 08007KT 02/02 A298 RMK A01 T00240017  RH  095%=      5-min Rain = 0
KLE1 181135Z 09007KT 02/02 A2979 RMK A01 T00240017  RH  095%=      5-min Rain = 0
KLE1 181136Z 09006KT 03/02 A298 RMK A01 T00250017  RH  095%=      5-min Rain = 0
KLE1 181137Z 08006KT 02/02 A298 RMK A01 T00240016  RH  095%=      5-min Rain = 0
KLE1 181138Z 07005KT 03/02 A298 RMK A01 T00250017  RH  094%=      5-min Rain = 0
KLE1 181139Z 07005KT 03/02 A298 RMK A01 T00250016  RH  094%=      5-min Rain = 0
KLE1 181140Z 06005KT 02/02 A298 RMK A01 T00240016  RH  094%=      5-min Rain = 0
KLE1 181141Z 06005KT 03/02 A298 RMK A01 T00250016  RH  094%=      5-min Rain = 0
KLE1 181142Z 06005KT 03/02 A298 RMK A01 T00250016  RH  094%=      5-min Rain = 0
KLE1 181143Z 07005KT 02/02 A298 RMK A01 T00240016  RH  094%=      5-min Rain = 0
KLE1 181144Z 07005KT 03/02 A298 RMK A01 T00250016  RH  094%=      5-min Rain = 0
KLE1 181145Z 07005KT 03/02 A298 RMK A01 T00250017  RH  094%=      5-min Rain = 0
KLE1 181146Z 07005KT 03/02 A298 RMK A01 T00260018  RH  094%=      5-min Rain = 0
KLE1 181147Z 07005KT 03/02 A298 RMK A01 T00270018  RH  094%=      5-min Rain = 0
KLE1 181148Z 07005KT 03/02 A298 RMK A01 T00270019  RH  094%=      5-min Rain = 0
KLE1 181149Z 07005KT 03/02 A298 RMK A01 T00280019  RH  094%=      5-min Rain = 0
KLE1 181150Z 07005KT 03/02 A298 RMK A01 T00280019  RH  094%=      5-min Rain = 0
KLE1 181151Z 07005KT 03/02 A298 RMK A01 T00280019  RH  094%=      5-min Rain = 0
KLE1 181152Z 07005KT 03/02 A298 RMK A01 T00290020  RH  094%=      5-min Rain = 0
KLE1 181153Z 07005KT 03/02 A2979 RMK A01 T00290020  RH  094%=      5-min Rain = 0
KLE1 181154Z 08005KT 03/02 A2979 RMK A01 T00290020  RH  093%=      5-min Rain = 0
KLE1 181155Z 08005KT 03/02 A2979 RMK A01 T00300019  RH  093%=      5-min Rain = 0
KLE1 181156Z 08006KT 03/02 A2979 RMK A01 T00290019  RH  093%=      5-min Rain = 0
KLE1 181157Z 08005KT 03/02 A2979 RMK A01 T00290019  RH  093%=      5-min Rain = 0
KLE1 181158Z 07005KT 03/02 A2979 RMK A01 T00300019  RH  093%=      5-min Rain = 0
KLE1 181159Z 08006KT 03/02 A2979 RMK A01 T00300020  RH  093%=      5-min Rain = 0
KLE1 181200Z 09006KT 03/02 A2979 RMK A01 T00300019  RH  093%=      5-min Rain = 0
KLE1 181201Z 08006KT 03/02 A2979 RMK A01 T00300020  RH  093%=      5-min Rain = 0
KLE1 181202Z 07006KT 03/02 A2979 RMK A01 T00300019  RH  093%=      5-min Rain = 0
KLE1 181203Z 08006KT 03/02 A2978 RMK A01 T00300020  RH  093%=      5-min Rain = 0
KLE1 181204Z 08006KT 03/02 A2978 RMK A01 T00310020  RH  093%=      5-min Rain = 0
KLE1 181205Z 09007KT 03/02 A2978 RMK A01 T00310020  RH  093%=      5-min Rain = 0
KLE1 181206Z 09007KT 03/02 A2978 RMK A01 T00310020  RH  093%=      5-min Rain = 0
KLE1 181207Z 09008KT 03/02 A2978 RMK A01 T00310020  RH  093%=      5-min Rain = 0
KLE1 181208Z 09008KT 03/02 A2978 RMK A01 T00310020  RH  092%=      5-min Rain = 0
KLE1 181209Z 09008KT 03/02 A2977 RMK A01 T00310020  RH  092%=      5-min Rain = 0
KLE1 181210Z 09008KT 03/02 A2977 RMK A01 T00310019  RH  092%=      5-min Rain = 0
KLE1 181211Z 09008KT 03/02 A2977 RMK A01 T00300019  RH  092%=      5-min Rain = 0
KLE1 181212Z 09008KT 03/02 A2977 RMK A01 T00300019  RH  093%=      5-min Rain = 0
KLE1 181213Z 09007KT 03/02 A2977 RMK A01 T00300019  RH  093%=      5-min Rain = 0
KLE1 181214Z 09008KT 03/02 A2977 RMK A01 T00300019  RH  093%=      5-min Rain = 0
KLE1 181215Z 09007KT 03/02 A2977 RMK A01 T00290018  RH  093%=      5-min Rain = 0
KLE1 181216Z 09007KT 03/02 A2978 RMK A01 T00290018  RH  093%=      5-min Rain = 0
KLE1 181217Z 09007KT 03/02 A2978 RMK A01 T00290018  RH  093%=      5-min Rain = 0
KLE1 181218Z 10006KT 03/02 A2978 RMK A01 T00290018  RH  093%=      5-min Rain = 0
KLE1 181219Z 09007KT 03/02 A2977 RMK A01 T00280018  RH  093%=      5-min Rain = 0
KLE1 181220Z 10006KT 03/02 A2977 RMK A01 T00280018  RH  093%=      5-min Rain = 0
KLE1 181221Z 10006KT 03/02 A2977 RMK A01 T00280018  RH  093%=      5-min Rain = 0
KLE1 181222Z 09007KT 03/02 A2977 RMK A01 T00280018  RH  093%=      5-min Rain = 0
KLE1 181223Z 09006KT 03/02 A2977 RMK A01 T00280018  RH  093%=      5-min Rain = 0
KLE1 181224Z 09006KT 03/02 A2978 RMK A01 T00270017  RH  093%=      5-min Rain = 0
KLE1 181225Z 09006KT 03/02 A2978 RMK A01 T00270017  RH  093%=      5-min Rain = 0
KLE1 181226Z 09006KT 03/02 A2977 RMK A01 T00270018  RH  093%=      5-min Rain = 0
KLE1 181227Z 10006KT 03/02 A2977 RMK A01 T00270017  RH  093%=      5-min Rain = 0
KLE1 181228Z 10005KT 03/02 A2977 RMK A01 T00270018  RH  093%=      5-min Rain = 0
KLE1 181229Z 09005KT 03/02 A2978 RMK A01 T00270018  RH  093%=      5-min Rain = 0
KLE1 181230Z 09006KT 03/02 A2978 RMK A01 T00270018  RH  093%=      5-min Rain = 0
KLE1 181231Z 09006KT 03/02 A2977 RMK A01 T00280019  RH  093%=      5-min Rain = 0
KLE1 181232Z 09006KT 03/02 A2977 RMK A01 T00290019  RH  093%=      5-min Rain = 0
KLE1 181233Z 08006KT 03/02 A2977 RMK A01 T00290020  RH  093%=      5-min Rain = 0
KLE1 181234Z 08005KT 03/02 A2977 RMK A01 T00300020  RH  093%=      5-min Rain = 0
KLE1 181235Z 08005KT 03/02 A2977 RMK A01 T00300020  RH  093%=      5-min Rain = 0
KLE1 181236Z 08005KT 03/02 A2977 RMK A01 T00300019  RH  093%=      5-min Rain = 0
KLE1 181237Z 08005KT 03/02 A2977 RMK A01 T00300019  RH  093%=      5-min Rain = 0
KLE1 181238Z 08006KT 03/02 A2977 RMK A01 T00300019  RH  092%=      5-min Rain = 0
KLE1 181239Z 08006KT 03/02 A2976 RMK A01 T00290018  RH  093%=      5-min Rain = 0
KLE1 181240Z 08006KT 03/02 A2976 RMK A01 T00290018  RH  093%=      5-min Rain = 0
KLE1 181241Z 08006KT 03/02 A2976 RMK A01 T00280018  RH  093%=      5-min Rain = 0
KLE1 181242Z 08006KT 03/02 A2976 RMK A01 T00280017  RH  093%=      5-min Rain = 0
KLE1 181243Z 07006KT 03/02 A2976 RMK A01 T00270016  RH  093%=      5-min Rain = 0
KLE1 181244Z 07006KT 03/02 A2976 RMK A01 T00260016  RH  093%=      5-min Rain = 0
KLE1 181245Z 07006KT 03/02 A2976 RMK A01 T00250016  RH  093%=      5-min Rain = 0
KLE1 181246Z 07006KT 03/02 A2976 RMK A01 T00260017  RH  094%=      5-min Rain = 0
KLE1 181247Z 06006KT 03/02 A2976 RMK A01 T00250016  RH  094%=      5-min Rain = 0
KLE1 181248Z 06006KT 03/02 A2976 RMK A01 T00250016  RH  094%=      5-min Rain = 0
KLE1 181249Z 07006KT 03/02 A2976 RMK A01 T00250016  RH  094%=      5-min Rain = 0
KLE1 181250Z 07006KT 03/02 A2976 RMK A01 T00250017  RH  094%=      5-min Rain = 0
KLE1 181251Z 07005KT 03/02 A2977 RMK A01 T00260017  RH  094%=      5-min Rain = 0
KLE1 181252Z 07005KT 03/02 A2977 RMK A01 T00260018  RH  094%=      5-min Rain = 0
KLE1 181253Z 07005KT 03/02 A2977 RMK A01 T00270018  RH  094%=      5-min Rain = 0
KLE1 181254Z 07005KT 03/02 A2977 RMK A01 T00270018  RH  094%=      5-min Rain = 0
KLE1 181255Z 07005KT 03/02 A2977 RMK A01 T00280018  RH  093%=      5-min Rain = 0
KLE1 181256Z 06006KT 03/02 A2977 RMK A01 T00280018  RH  093%=      5-min Rain = 0
KLE1 181257Z 05006KT 03/02 A2977 RMK A01 T00280018  RH  093%=      5-min Rain = 0
KLE1 181258Z 04006KT 03/02 A2977 RMK A01 T00290018  RH  093%=      5-min Rain = 0
KLE1 181259Z 04005KT 03/02 A2977 RMK A01 T00290018  RH  093%=      5-min Rain = 0
KLE1 181300Z 04005KT 03/02 A2977 RMK A01 T00290018  RH  093%=      5-min Rain = 0
KLE1 181301Z 04005KT 03/02 A2978 RMK A01 T00290018  RH  093%=      5-min Rain = 0
KLE1 181302Z 05005KT 03/02 A2978 RMK A01 T00290018  RH  092%=      5-min Rain = 0
KLE1 181303Z 06005KT 03/02 A2978 RMK A01 T00300019  RH  092%=      5-min Rain = 0
KLE1 181304Z 06005KT 03/02 A2978 RMK A01 T00300019  RH  092%=      5-min Rain = 0
KLE1 181305Z 06004KT 03/02 A2978 RMK A01 T00310019  RH  092%=      5-min Rain = 0
KLE1 181306Z 06005KT 03/02 A2978 RMK A01 T00310019  RH  092%=      5-min Rain = 0
KLE1 181307Z 06004KT 03/02 A2978 RMK A01 T00320019  RH  091%=      5-min Rain = 0
KLE1 181308Z 06004KT 03/02 A2978 RMK A01 T00320019  RH  091%=      5-min Rain = 0
KLE1 181309Z 06004KT 03/02 A2978 RMK A01 T00320019  RH  091%=      5-min Rain = 0
KLE1 181310Z 06004KT 03/02 A2978 RMK A01 T00330019  RH  091%=      5-min Rain = 0
KLE1 181311Z 06004KT 03/02 A2978 RMK A01 T00330019  RH  090%=      5-min Rain = 0
KLE1 181312Z 08004KT 03/02 A2978 RMK A01 T00340019  RH  090%=      5-min Rain = 0
KLE1 181313Z 08005KT 03/02 A2978 RMK A01 T00340019  RH  090%=      5-min Rain = 0
KLE1 181314Z 07004KT 04/02 A2978 RMK A01 T00350019  RH  090%=      5-min Rain = 0
KLE1 181315Z 07004KT 04/02 A2978 RMK A01 T00350019  RH  090%=      5-min Rain = 0
KLE1 181316Z 07004KT 04/02 A2978 RMK A01 T00350019  RH  089%=      5-min Rain = 0
KLE1 181317Z 07004KT 04/02 A2978 RMK A01 T00350019  RH  089%=      5-min Rain = 0
KLE1 181318Z 06004KT 04/02 A2978 RMK A01 T00350019  RH  089%=      5-min Rain = 0
KLE1 181319Z 05004KT 04/02 A2978 RMK A01 T00350019  RH  089%=      5-min Rain = 0
KLE1 181320Z 05004KT 03/02 A2978 RMK A01 T00340019  RH  089%=      5-min Rain = 0
KLE1 181321Z 06004KT 03/02 A2978 RMK A01 T00340018  RH  090%=      5-min Rain = 0
KLE1 181322Z 06004KT 03/02 A2978 RMK A01 T00330019  RH  090%=      5-min Rain = 0
KLE1 181323Z 06004KT 03/02 A2978 RMK A01 T00340019  RH  090%=      5-min Rain = 0
KLE1 181324Z 06004KT 03/02 A2978 RMK A01 T00330019  RH  090%=      5-min Rain = 0
KLE1 181325Z 06004KT 03/02 A2978 RMK A01 T00330019  RH  090%=      5-min Rain = 0
KLE1 181326Z 07004KT 03/02 A2977 RMK A01 T00330019  RH  090%=      5-min Rain = 0
KLE1 181327Z 08004KT 03/02 A2977 RMK A01 T00340020  RH  090%=      5-min Rain = 0
KLE1 181328Z 07004KT 03/02 A2977 RMK A01 T00340020  RH  090%=      5-min Rain = 0
KLE1 181329Z 08004KT 04/02 A2977 RMK A01 T00350020  RH  090%=      5-min Rain = 0
KLE1 181330Z 08004KT 04/02 A2977 RMK A01 T00350020  RH  090%=      5-min Rain = 0
KLE1 181331Z 09005KT 04/02 A2977 RMK A01 T00350020  RH  090%=      5-min Rain = 0
KLE1 181332Z 09005KT 04/02 A2977 RMK A01 T00350020  RH  090%=      5-min Rain = 0
KLE1 181333Z 09004KT 04/02 A2977 RMK A01 T00360020  RH  089%=      5-min Rain = 0
KLE1 181334Z 10005KT 04/02 A2977 RMK A01 T00360020  RH  089%=      5-min Rain = 0
KLE1 181335Z 10005KT 04/02 A2977 RMK A01 T00360020  RH  089%=      5-min Rain = 0
KLE1 181336Z 09004KT 04/02 A2977 RMK A01 T00360019  RH  089%=      5-min Rain = 0
KLE1 181337Z 10005KT 04/02 A2977 RMK A01 T00360020  RH  089%=      5-min Rain = 0
KLE1 181338Z 11005KT 04/02 A2977 RMK A01 T00360020  RH  089%=      5-min Rain = 0
KLE1 181339Z 11005KT 04/02 A2976 RMK A01 T00360020  RH  089%=      5-min Rain = 0
KLE1 181340Z 11005KT 04/02 A2976 RMK A01 T00360020  RH  089%=      5-min Rain = 0
KLE1 181341Z 12004KT 04/02 A2976 RMK A01 T00370020  RH  089%=      5-min Rain = 0
KLE1 181342Z 11003KT 04/02 A2976 RMK A01 T00370020  RH  089%=      5-min Rain = 0
KLE1 181343Z 11003KT 04/02 A2976 RMK A01 T00370020  RH  089%=      5-min Rain = 0
KLE1 181344Z 11003KT 04/02 A2976 RMK A01 T00370020  RH  088%=      5-min Rain = 0
KLE1 181345Z 11003KT 04/02 A2977 RMK A01 T00370020  RH  088%=      5-min Rain = 0
KLE1 181346Z 12003KT 04/02 A2977 RMK A01 T00370020  RH  088%=      5-min Rain = 0
KLE1 181347Z 12003KT 04/02 A2977 RMK A01 T00370020  RH  088%=      5-min Rain = 0
KLE1 181348Z 11003KT 04/02 A2976 RMK A01 T00370020  RH  088%=      5-min Rain = 0
KLE1 181349Z 11004KT 04/02 A2976 RMK A01 T00360019  RH  089%=      5-min Rain = 0
KLE1 181350Z 12003KT 04/02 A2977 RMK A01 T00360019  RH  089%=      5-min Rain = 0
KLE1 181351Z 12003KT 04/02 A2977 RMK A01 T00360019  RH  089%=      5-min Rain = 0
KLE1 181352Z 13003KT 04/02 A2977 RMK A01 T00350019  RH  089%=      5-min Rain = 0
KLE1 181353Z 13003KT 04/02 A2976 RMK A01 T00350018  RH  089%=      5-min Rain = 0
KLE1 181354Z 13003KT 03/02 A2976 RMK A01 T00340018  RH  089%=      5-min Rain = 0
KLE1 181355Z 14003KT 03/02 A2976 RMK A01 T00340018  RH  089%=      5-min Rain = 0
KLE1 181356Z 14002KT 03/02 A2976 RMK A01 T00340018  RH  089%=      5-min Rain = 0
KLE1 181357Z 11001KT 03/02 A2976 RMK A01 T00340018  RH  090%=      5-min Rain = 0
KLE1 181358Z 11001KT 03/02 A2976 RMK A01 T00340018  RH  090%=      5-min Rain = 0
KLE1 181359Z 11001KT 03/02 A2976 RMK A01 T00340018  RH  090%=      5-min Rain = 0
KLE1 181400Z 10002KT 03/02 A2976 RMK A01 T00340019  RH  090%=      5-min Rain = 0
KLE1 181401Z 11002KT 03/02 A2976 RMK A01 T00340018  RH  089%=      5-min Rain = 0
KLE1 181402Z 11003KT 04/02 A2975 RMK A01 T00350019  RH  089%=      5-min Rain = 0
KLE1 181403Z 11003KT 04/02 A2975 RMK A01 T00350019  RH  089%=      5-min Rain = 0
KLE1 181404Z 11003KT 04/02 A2975 RMK A01 T00350019  RH  090%=      5-min Rain = 0
KLE1 181405Z 11003KT 04/02 A2975 RMK A01 T00350020  RH  090%=      5-min Rain = 0
KLE1 181406Z 11003KT 03/02 A2975 RMK A01 T00340020  RH  090%=      5-min Rain = 0
KLE1 181407Z 11004KT 03/02 A2975 RMK A01 T00340020  RH  090%=      5-min Rain = 0
KLE1 181408Z 11003KT 03/02 A2975 RMK A01 T00330019  RH  090%=      5-min Rain = 0
KLE1 181409Z 10003KT 03/02 A2975 RMK A01 T00330019  RH  091%=      5-min Rain = 0
KLE1 181410Z 09003KT 03/02 A2975 RMK A01 T00330019  RH  091%=      5-min Rain = 0
KLE1 181411Z 08003KT 03/02 A2975 RMK A01 T00320019  RH  091%=      5-min Rain = 0
KLE1 181412Z 06003KT 03/02 A2975 RMK A01 T00320019  RH  091%=      5-min Rain = 0
KLE1 181413Z 04003KT 03/02 A2975 RMK A01 T00310019  RH  092%=      5-min Rain = 0
KLE1 181414Z 05003KT 03/02 A2975 RMK A01 T00310020  RH  092%=      5-min Rain = 0
KLE1 181415Z 04003KT 03/02 A2975 RMK A01 T00310020  RH  092%=      5-min Rain = 0
KLE1 181416Z 05003KT 03/02 A2975 RMK A01 T00310020  RH  093%=      5-min Rain = 0
KLE1 181417Z 05003KT 03/02 A2975 RMK A01 T00310021  RH  093%=      5-min Rain = 0
KLE1 181418Z 05003KT 03/02 A2975 RMK A01 T00320021  RH  093%=      5-min Rain = 0
KLE1 181419Z 05004KT 03/02 A2975 RMK A01 T00320021  RH  093%=      5-min Rain = 0
KLE1 181420Z 04004KT 03/02 A2975 RMK A01 T00320021  RH  093%=      5-min Rain = 0
KLE1 181421Z 04004KT 03/02 A2975 RMK A01 T00330022  RH  092%=      5-min Rain = 0
KLE1 181422Z 04004KT 03/02 A2975 RMK A01 T00330022  RH  092%=      5-min Rain = 0
KLE1 181423Z 04005KT 03/02 A2975 RMK A01 T00330022  RH  092%=      5-min Rain = 0
KLE1 181424Z 05005KT 03/02 A2975 RMK A01 T00340022  RH  092%=      5-min Rain = 0
KLE1 181425Z 05006KT 03/02 A2975 RMK A01 T00340023  RH  092%=      5-min Rain = 0
KLE1 181426Z 04005KT 03/02 A2975 RMK A01 T00340023  RH  092%=      5-min Rain = 0
KLE1 181427Z 05006KT 04/02 A2975 RMK A01 T00350023  RH  092%=      5-min Rain = 0
KLE1 181428Z 05006KT 04/02 A2975 RMK A01 T00350023  RH  092%=      5-min Rain = 0
KLE1 181429Z 04006KT 04/02 A2975 RMK A01 T00360024  RH  092%=      5-min Rain = 0
KLE1 181430Z 05006KT 04/02 A2975 RMK A01 T00360023  RH  091%=      5-min Rain = 0
KLE1 181431Z 05006KT 04/02 A2975 RMK A01 T00360023  RH  091%=      5-min Rain = 0
KLE1 181432Z 05006KT 04/02 A2975 RMK A01 T00370023  RH  091%=      5-min Rain = 0
KLE1 181433Z 05007KT 04/02 A2975 RMK A01 T00370023  RH  091%=      5-min Rain = 0
KLE1 181434Z 05007KT 04/02 A2975 RMK A01 T00370024  RH  091%=      5-min Rain = 0
KLE1 181435Z 05007KT 04/02 A2975 RMK A01 T00380023  RH  091%=      5-min Rain = 0
KLE1 181436Z 04007KT 04/02 A2975 RMK A01 T00380024  RH  090%=      5-min Rain = 0
KLE1 181437Z 05007KT 04/02 A2975 RMK A01 T00380024  RH  090%=      5-min Rain = 0
KLE1 181438Z 05007KT 04/02 A2975 RMK A01 T00390024  RH  090%=      5-min Rain = 0
KLE1 181439Z 05006KT 04/02 A2975 RMK A01 T00400024  RH  090%=      5-min Rain = 0
KLE1 181440Z 05006KT 04/03 A2975 RMK A01 T00410025  RH  089%=      5-min Rain = 0
KLE1 181441Z 05004KT 04/03 A2975 RMK A01 T00410025  RH  089%=      5-min Rain = 0
KLE1 181442Z 05005KT 04/03 A2975 RMK A01 T00410025  RH  089%=      5-min Rain = 0
KLE1 181443Z 04004KT 04/03 A2975 RMK A01 T00420025  RH  089%=      5-min Rain = 0
KLE1 181444Z 06003KT 04/03 A2975 RMK A01 T00420025  RH  089%=      5-min Rain = 0
KLE1 181445Z 07003KT 04/03 A2975 RMK A01 T00430025  RH  088%=      5-min Rain = 0
KLE1 181446Z 07004KT 04/03 A2975 RMK A01 T00440026  RH  088%=      5-min Rain = 0
KLE1 181447Z 07004KT 04/03 A2975 RMK A01 T00440026  RH  088%=      5-min Rain = 0
KLE1 181448Z 06004KT 04/03 A2975 RMK A01 T00440026  RH  088%=      5-min Rain = 0
KLE1 181449Z 05003KT 05/03 A2975 RMK A01 T00450026  RH  087%=      5-min Rain = 0
KLE1 181450Z 04004KT 05/03 A2975 RMK A01 T00450025  RH  087%=      5-min Rain = 0
KLE1 181451Z 03003KT 05/03 A2975 RMK A01 T00450025  RH  087%=      5-min Rain = 0
KLE1 181452Z 04003KT 05/03 A2975 RMK A01 T00460026  RH  087%=      5-min Rain = 0
KLE1 181453Z 05004KT 05/03 A2975 RMK A01 T00460026  RH  087%=      5-min Rain = 0
KLE1 181454Z 06004KT 05/03 A2975 RMK A01 T00460026  RH  087%=      5-min Rain = 0
KLE1 181455Z 07004KT 05/03 A2975 RMK A01 T00460026  RH  087%=      5-min Rain = 0
KLE1 181456Z 06004KT 05/03 A2975 RMK A01 T00460026  RH  087%=      5-min Rain = 0
KLE1 181457Z 06004KT 05/03 A2975 RMK A01 T00460026  RH  087%=      5-min Rain = 0
KLE1 181458Z 06004KT 05/03 A2974 RMK A01 T00460026  RH  087%=      5-min Rain = 0
KLE1 181459Z 05005KT 05/03 A2974 RMK A01 T00460026  RH  087%=      5-min Rain = 0
KLE1 181500Z 05005KT 05/03 A2974 RMK A01 T00470027  RH  087%=      5-min Rain = 0
KLE1 181501Z 05005KT 05/03 A2974 RMK A01 T00460026  RH  087%=      5-min Rain = 0
KLE1 181502Z 05004KT 05/03 A2974 RMK A01 T00470026  RH  087%=      5-min Rain = 0
KLE1 181503Z 05004KT 05/03 A2974 RMK A01 T00460026  RH  086%=      5-min Rain = 0
KLE1 181504Z 06004KT 05/03 A2974 RMK A01 T00460025  RH  086%=      5-min Rain = 0
KLE1 181505Z 06004KT 05/03 A2974 RMK A01 T00460026  RH  086%=      5-min Rain = 0
KLE1 181506Z 07005KT 05/03 A2974 RMK A01 T00470026  RH  086%=      5-min Rain = 0
KLE1 181507Z 07004KT 05/03 A2974 RMK A01 T00460025  RH  086%=      5-min Rain = 0
KLE1 181508Z 07004KT 05/03 A2974 RMK A01 T00470025  RH  086%=      5-min Rain = 0
KLE1 181509Z 08004KT 05/03 A2974 RMK A01 T00470025  RH  085%=      5-min Rain = 0
KLE1 181510Z 08004KT 05/03 A2974 RMK A01 T00470025  RH  085%=      5-min Rain = 0
KLE1 181511Z 07004KT 05/03 A2974 RMK A01 T00480025  RH  085%=      5-min Rain = 0
KLE1 181512Z 07004KT 05/02 A2974 RMK A01 T00470024  RH  085%=      5-min Rain = 0
KLE1 181513Z 07004KT 05/02 A2974 RMK A01 T00470024  RH  085%=      5-min Rain = 0
KLE1 181514Z 07004KT 05/02 A2974 RMK A01 T00480024  RH  085%=      5-min Rain = 0
KLE1 181515Z 07004KT 05/02 A2974 RMK A01 T00480024  RH  085%=      5-min Rain = 0
KLE1 181516Z 08004KT 05/02 A2974 RMK A01 T00480024  RH  084%=      5-min Rain = 0
KLE1 181517Z 08004KT 05/02 A2974 RMK A01 T00480024  RH  084%=      5-min Rain = 0
KLE1 181518Z 09004KT 05/03 A2974 RMK A01 T00490025  RH  084%=      5-min Rain = 0
KLE1 181519Z 09004KT 05/03 A2974 RMK A01 T00490025  RH  084%=      5-min Rain = 0
KLE1 181520Z 08004KT 05/03 A2974 RMK A01 T00490025  RH  084%=      5-min Rain = 0
KLE1 181521Z 08004KT 05/03 A2974 RMK A01 T00500025  RH  084%=      5-min Rain = 0
KLE1 181522Z 08003KT 05/03 A2974 RMK A01 T00500026  RH  084%=      5-min Rain = 0
KLE1 181523Z 09004KT 05/03 A2974 RMK A01 T00510026  RH  084%=      5-min Rain = 0
KLE1 181524Z 08003KT 05/03 A2975 RMK A01 T00520027  RH  084%=      5-min Rain = 0
KLE1 181525Z 07003KT 05/03 A2975 RMK A01 T00530027  RH  084%=      5-min Rain = 0
KLE1 181526Z 07003KT 05/03 A2975 RMK A01 T00530027  RH  083%=      5-min Rain = 0
KLE1 181527Z 06004KT 05/03 A2975 RMK A01 T00540026  RH  083%=      5-min Rain = 0
KLE1 181528Z 04004KT 05/03 A2974 RMK A01 T00540027  RH  083%=      5-min Rain = 0
KLE1 181529Z 06004KT 06/03 A2974 RMK A01 T00550028  RH  083%=      5-min Rain = 0
KLE1 181530Z 07004KT 06/03 A2974 RMK A01 T00550029  RH  084%=      5-min Rain = 0
KLE1 181531Z 08004KT 06/03 A2974 RMK A01 T00550029  RH  083%=      5-min Rain = 0
KLE1 181532Z 08004KT 06/03 A2974 RMK A01 T00560028  RH  082%=      5-min Rain = 0
KLE1 181533Z 08004KT 06/03 A2974 RMK A01 T00570027  RH  081%=      5-min Rain = 0
KLE1 181534Z 08004KT 06/03 A2974 RMK A01 T00580028  RH  081%=      5-min Rain = 0
KLE1 181535Z 08004KT 06/03 A2974 RMK A01 T00590029  RH  081%=      5-min Rain = 0
KLE1 181536Z 08004KT 06/03 A2973 RMK A01 T00590030  RH  082%=      5-min Rain = 0
KLE1 181537Z 08004KT 06/03 A2973 RMK A01 T00600032  RH  082%=      5-min Rain = 0
KLE1 181538Z 07004KT 06/03 A2973 RMK A01 T00600031  RH  082%=      5-min Rain = 0
KLE1 181539Z 08004KT 06/03 A2973 RMK A01 T00600034  RH  083%=      5-min Rain = 0
KLE1 181540Z 08004KT 06/03 A2973 RMK A01 T00610032  RH  082%=      5-min Rain = 0
KLE1 181541Z 07004KT 06/03 A2973 RMK A01 T00620031  RH  081%=      5-min Rain = 0
KLE1 181542Z 07004KT 06/04 A2973 RMK A01 T00630035  RH  083%=      5-min Rain = 0
KLE1 181543Z 07004KT 06/04 A2973 RMK A01 T00640036  RH  082%=      5-min Rain = 0
KLE1 181544Z 06004KT 06/03 A2973 RMK A01 T00640033  RH  080%=      5-min Rain = 0
KLE1 181545Z 06005KT 06/03 A2973 RMK A01 T00640032  RH  080%=      5-min Rain = 0
KLE1 181546Z 05005KT 06/03 A2973 RMK A01 T00640034  RH  081%=      5-min Rain = 0
KLE1 181547Z 06006KT 06/04 A2973 RMK A01 T00640035  RH  082%=      5-min Rain = 0
KLE1 181548Z 09004KT 06/03 A2973 RMK A01 T00640033  RH  081%=      5-min Rain = 0
KLE1 181549Z 09003KT 07/03 A2973 RMK A01 T00650032  RH  080%=      5-min Rain = 0
KLE1 181550Z 10002KT 07/03 A2973 RMK A01 T00660031  RH  078%=      5-min Rain = 0
KLE1 181551Z 09003KT 07/03 A2973 RMK A01 T00670032  RH  078%=      5-min Rain = 0
KLE1 181552Z 09003KT 07/03 A2973 RMK A01 T00680033  RH  079%=      5-min Rain = 0
KLE1 181553Z 10002KT 07/04 A2973 RMK A01 T00680035  RH  079%=      5-min Rain = 0
KLE1 181554Z 10003KT 07/03 A2973 RMK A01 T00690034  RH  078%=      5-min Rain = 0
KLE1 181555Z 10003KT 07/03 A2973 RMK A01 T00700033  RH  077%=      5-min Rain = 0
KLE1 181556Z 09003KT 07/03 A2973 RMK A01 T00710033  RH  077%=      5-min Rain = 0
KLE1 181557Z 08003KT 07/03 A2973 RMK A01 T00710030  RH  075%=      5-min Rain = 0
KLE1 181558Z 08003KT 07/03 A2973 RMK A01 T00710032  RH  076%=      5-min Rain = 0
KLE1 181559Z 09003KT 07/03 A2973 RMK A01 T00720033  RH  077%=      5-min Rain = 0
KLE1 181600Z 09003KT 07/03 A2973 RMK A01 T00720032  RH  076%=      5-min Rain = 0
KLE1 181601Z 09002KT 07/03 A2973 RMK A01 T00720029  RH  074%=      5-min Rain = 0
KLE1 181602Z 11002KT 07/03 A2973 RMK A01 T00720030  RH  074%=      5-min Rain = 0
KLE1 181603Z 14003KT 07/03 A2973 RMK A01 T00730032  RH  075%=      5-min Rain = 0
KLE1 181604Z 14004KT 07/03 A2973 RMK A01 T00740032  RH  075%=      5-min Rain = 0
KLE1 181605Z 14004KT 07/03 A2973 RMK A01 T00740034  RH  075%=      5-min Rain = 0
KLE1 181606Z 13004KT 08/03 A2973 RMK A01 T00750034  RH  075%=      5-min Rain = 0
KLE1 181607Z 12004KT 08/03 A2973 RMK A01 T00760034  RH  075%=      5-min Rain = 0
KLE1 181608Z 11004KT 08/03 A2973 RMK A01 T00760034  RH  075%=      5-min Rain = 0
KLE1 181609Z 10004KT 08/04 A2973 RMK A01 T00770035  RH  075%=      5-min Rain = 0
KLE1 181610Z 09004KT 08/03 A2972 RMK A01 T00770034  RH  074%=      5-min Rain = 0
KLE1 181611Z 08003KT 08/03 A2972 RMK A01 T00780034  RH  074%=      5-min Rain = 0
KLE1 181612Z 07003KT 08/04 A2972 RMK A01 T00780035  RH  074%=      5-min Rain = 0
KLE1 181613Z 07004KT 08/04 A2973 RMK A01 T00780035  RH  074%=      5-min Rain = 0
KLE1 181614Z 07004KT 08/04 A2972 RMK A01 T00790038  RH  075%=      5-min Rain = 0
KLE1 181615Z 06004KT 08/04 A2972 RMK A01 T00800039  RH  075%=      5-min Rain = 0
KLE1 181616Z 05003KT 08/04 A2972 RMK A01 T00810041  RH  076%=      5-min Rain = 0
KLE1 181617Z 05003KT 08/04 A2972 RMK A01 T00810038  RH  074%=      5-min Rain = 0
KLE1 181618Z 06004KT 08/04 A2972 RMK A01 T00820039  RH  074%=      5-min Rain = 0
KLE1 181619Z 06003KT 08/04 A2972 RMK A01 T00830040  RH  074%=      5-min Rain = 0
KLE1 181620Z 07003KT 08/04 A2972 RMK A01 T00840041  RH  074%=      5-min Rain = 0
KLE1 181621Z 06003KT 09/04 A2972 RMK A01 T00850039  RH  073%=      5-min Rain = 0
KLE1 181622Z 05003KT 09/04 A2972 RMK A01 T00850039  RH  072%=      5-min Rain = 0
KLE1 181623Z 04001KT 09/04 A2972 RMK A01 T00860038  RH  072%=      5-min Rain = 0
KLE1 181624Z 03001KT 09/04 A2972 RMK A01 T00870040  RH  073%=      5-min Rain = 0
KLE1 181625Z 04002KT 09/04 A2972 RMK A01 T00880041  RH  073%=      5-min Rain = 0
KLE1 181626Z 04002KT 09/04 A2971 RMK A01 T00880041  RH  072%=      5-min Rain = 0
KLE1 181627Z 05002KT 09/04 A2971 RMK A01 T00890041  RH  072%=      5-min Rain = 0
KLE1 181628Z 06001KT 09/04 A2971 RMK A01 T00900041  RH  071%=      5-min Rain = 0
KLE1 181629Z 07001KT 09/04 A2971 RMK A01 T00910043  RH  072%=      5-min Rain = 0
KLE1 181630Z 10000KT 09/04 A2971 RMK A01 T00930043  RH  071%=      5-min Rain = 0
KLE1 181631Z 13001KT 09/04 A2971 RMK A01 T00940042  RH  070%=      5-min Rain = 0
KLE1 181632Z 13001KT 10/04 A2971 RMK A01 T00950044  RH  070%=      5-min Rain = 0
KLE1 181633Z 13001KT 10/04 A2971 RMK A01 T00960043  RH  069%=      5-min Rain = 0
KLE1 181634Z 13002KT 10/04 A2971 RMK A01 T00980042  RH  068%=      5-min Rain = 0
KLE1 181635Z 12003KT 10/04 A2971 RMK A01 T00990043  RH  068%=      5-min Rain = 0
KLE1 181636Z 13003KT 10/04 A2971 RMK A01 T00990044  RH  069%=      5-min Rain = 0
KLE1 181637Z 12004KT 10/05 A2971 RMK A01 T00990047  RH  070%=      5-min Rain = 0
KLE1 181638Z 13005KT 10/04 A2971 RMK A01 T01000044  RH  068%=      5-min Rain = 0
KLE1 181639Z 13005KT 10/04 A2971 RMK A01 T01000039  RH  066%=      5-min Rain = 0
KLE1 181640Z 12005KT 10/04 A2971 RMK A01 T01000036  RH  064%=      5-min Rain = 0
KLE1 181641Z 11005KT 10/03 A2971 RMK A01 T01010029  RH  061%=      5-min Rain = 0
KLE1 181642Z 12004KT 10/03 A2971 RMK A01 T01020030  RH  061%=      5-min Rain = 0
KLE1 181643Z 11004KT 10/03 A2971 RMK A01 T01030032  RH  061%=      5-min Rain = 0
KLE1 181644Z 10004KT 10/03 A297 RMK A01 T01030034  RH  062%=      5-min Rain = 0
KLE1 181645Z 11003KT 10/04 A297 RMK A01 T01040037  RH  063%=      5-min Rain = 0
KLE1 181646Z 12003KT 11/04 A297 RMK A01 T01050039  RH  063%=      5-min Rain = 0
KLE1 181647Z 11004KT 11/04 A297 RMK A01 T01060040  RH  064%=      5-min Rain = 0
KLE1 181648Z 11004KT 11/04 A297 RMK A01 T01060039  RH  063%=      5-min Rain = 0
KLE1 181649Z 11004KT 11/03 A297 RMK A01 T01070032  RH  060%=      5-min Rain = 0
KLE1 181650Z 11004KT 11/03 A297 RMK A01 T01070030  RH  059%=      5-min Rain = 0
KLE1 181651Z 11004KT 11/03 A297 RMK A01 T01080033  RH  060%=      5-min Rain = 0
KLE1 181652Z 12004KT 11/03 A297 RMK A01 T01080034  RH  060%=      5-min Rain = 0
KLE1 181653Z 12004KT 11/04 A297 RMK A01 T01080036  RH  061%=      5-min Rain = 0
KLE1 181654Z 12004KT 11/04 A2969 RMK A01 T01110040  RH  062%=      5-min Rain = 0
KLE1 181655Z 12004KT 11/04 A2969 RMK A01 T01140041  RH  061%=      5-min Rain = 0
KLE1 181656Z 12003KT 12/04 A2969 RMK A01 T01160040  RH  060%=      5-min Rain = 0
KLE1 181657Z 12003KT 12/04 A2969 RMK A01 T01180039  RH  058%=      5-min Rain = 0
KLE1 181658Z 12002KT 12/04 A2969 RMK A01 T01210038  RH  057%=      5-min Rain = 0
KLE1 181659Z 11002KT 12/04 A2969 RMK A01 T01230035  RH  055%=      5-min Rain = 0
KLE1 181700Z 12002KT 13/04 A2969 RMK A01 T01250037  RH  055%=      5-min Rain = 0
KLE1 181701Z 10001KT 13/04 A2969 RMK A01 T01280037  RH  054%=      5-min Rain = 0
KLE1 181702Z 12002KT 13/04 A2969 RMK A01 T01310037  RH  053%=      5-min Rain = 0
KLE1 181703Z 12003KT 14/04 A2969 RMK A01 T01360042  RH  053%=      5-min Rain = 0
KLE1 181704Z 13004KT 14/04 A2969 RMK A01 T01370039  RH  052%=      5-min Rain = 0
KLE1 181705Z 12002KT 14/04 A2969 RMK A01 T01370041  RH  052%=      5-min Rain = 0
KLE1 181706Z 24004KT 14/04 A2968 RMK A01 T01390038  RH  050%=      5-min Rain = 0
KLE1 181707Z 26004KT 15/04 A2968 RMK A01 T01450037  RH  048%=      5-min Rain = 0
KLE1 181708Z 25009KT 15/04 A2968 RMK A01 T01530036  RH  046%=      5-min Rain = 0
KLE1 181709Z 27012KT 16/04 A2968 RMK A01 T01620037  RH  043%=      5-min Rain = 0
KLE1 181710Z 27011KT 17/04 A2968 RMK A01 T01670037  RH  042%=      5-min Rain = 0
KLE1 181711Z 27012G17KT 17/04 A2968 RMK A01 T01680036  RH  041%=      5-min Rain = 0
KLE1 181712Z 26016G23KT 17/04 A2968 RMK A01 T01720038  RH  041%=      5-min Rain = 0
KLE1 181713Z 26025G31KT 18/04 A2967 RMK A01 T01790041  RH  040%=      5-min Rain = 0
KLE1 181714Z 26025G30KT 19/04 A2967 RMK A01 T01890040  RH  037%=      5-min Rain = 0
KLE1 181715Z 26022G29KT 19/04 A2967 RMK A01 T01940039  RH  036%=      5-min Rain = 0
KLE1 181716Z 26022KT 20/04 A2967 RMK A01 T01980041  RH  036%=      5-min Rain = 0
KLE1 181717Z 26024KT 20/04 A2967 RMK A01 T02000040  RH  035%=      5-min Rain = 0
KLE1 181718Z 26023KT 20/04 A2967 RMK A01 T02020040  RH  034%=      5-min Rain = 0
KLE1 181719Z 26022G31KT 20/04 A2967 RMK A01 T02040040  RH  034%=      5-min Rain = 0
KLE1 181720Z 26026KT 21/04 A2967 RMK A01 T02050039  RH  033%=      5-min Rain = 0
KLE1 181721Z 26024G31KT 21/04 A2966 RMK A01 T02050038  RH  033%=      5-min Rain = 0
KLE1 181722Z 26027KT 21/04 A2966 RMK A01 T02060039  RH  033%=      5-min Rain = 0
KLE1 181723Z 26028KT 21/04 A2966 RMK A01 T02070038  RH  033%=      5-min Rain = 0
KLE1 181724Z 26028G34KT 21/04 A2966 RMK A01 T02080038  RH  033%=      5-min Rain = 0
KLE1 181725Z 27027KT 21/04 A2966 RMK A01 T02080037  RH  033%=      5-min Rain = 0
KLE1 181726Z 26029G34KT 21/04 A2966 RMK A01 T02090037  RH  032%=      5-min Rain = 0
KLE1 181727Z 27025G30KT 21/04 A2966 RMK A01 T02100038  RH  032%=      5-min Rain = 0
KLE1 181728Z 27027G32KT 21/04 A2966 RMK A01 T02110038  RH  032%=      5-min Rain = 0
KLE1 181729Z 27028G33KT 21/04 A2966 RMK A01 T02120036  RH  031%=      5-min Rain = 0
KLE1 181730Z 26024G29KT 21/04 A2966 RMK A01 T02120035  RH  031%=      5-min Rain = 0
KLE1 181731Z 25026KT 21/04 A2965 RMK A01 T02130037  RH  031%=      5-min Rain = 0
KLE1 181732Z 25025G30KT 21/04 A2965 RMK A01 T02140037  RH  031%=      5-min Rain = 0
KLE1 181733Z 26025G30KT 22/04 A2965 RMK A01 T02160036  RH  031%=      5-min Rain = 0
KLE1 181734Z 26021G26KT 22/04 A2965 RMK A01 T02170037  RH  031%=      5-min Rain = 0
KLE1 181735Z 26022G27KT 22/04 A2965 RMK A01 T02200040  RH  031%=      5-min Rain = 0
KLE1 181736Z 26021KT 22/04 A2965 RMK A01 T02230040  RH  030%=      5-min Rain = 0
KLE1 181737Z 27023KT 23/04 A2965 RMK A01 T02260041  RH  030%=      5-min Rain = 0
KLE1 181738Z 27025G30KT 23/04 A2964 RMK A01 T02270040  RH  029%=      5-min Rain = 0
KLE1 181739Z 27030G36KT 23/04 A2964 RMK A01 T02270038  RH  029%=      5-min Rain = 0
KLE1 181740Z 27032G38KT 23/04 A2964 RMK A01 T02250036  RH  029%=      5-min Rain = 0
KLE1 181741Z 27030G37KT 22/04 A2964 RMK A01 T02230036  RH  029%=      5-min Rain = 0
KLE1 181742Z 27029G35KT 22/04 A2964 RMK A01 T02220037  RH  030%=      5-min Rain = 0
KLE1 181743Z 27029G34KT 22/03 A2964 RMK A01 T02210034  RH  029%=      5-min Rain = 0
KLE1 181744Z 27030KT 22/03 A2964 RMK A01 T02200034  RH  030%=      5-min Rain = 0
KLE1 181745Z 26027KT 22/04 A2964 RMK A01 T02190035  RH  030%=      5-min Rain = 0
KLE1 181746Z 26028G33KT 22/04 A2964 RMK A01 T02190035  RH  030%=      5-min Rain = 0
KLE1 181747Z 27023G28KT 22/04 A2964 RMK A01 T02200035  RH  030%=      5-min Rain = 0
KLE1 181748Z 26029G34KT 22/03 A2964 RMK A01 T02210034  RH  029%=      5-min Rain = 0
KLE1 181749Z 26026KT 22/03 A2964 RMK A01 T02210033  RH  029%=      5-min Rain = 0
KLE1 181750Z 25026G32KT 22/03 A2964 RMK A01 T02210034  RH  029%=      5-min Rain = 0
KLE1 181751Z 26032KT 22/03 A2963 RMK A01 T02230033  RH  029%=      5-min Rain = 0
KLE1 181752Z 25028G34KT 22/03 A2963 RMK A01 T02220032  RH  029%=      5-min Rain = 0
KLE1 181753Z 26030KT 22/03 A2963 RMK A01 T02220033  RH  029%=      5-min Rain = 0
KLE1 181754Z 26034G39KT 22/03 A2963 RMK A01 T02220031  RH  029%=      5-min Rain = 0
KLE1 181755Z 26035KT 22/03 A2963 RMK A01 T02200029  RH  028%=      5-min Rain = 0
KLE1 181756Z 26033KT 22/03 A2963 RMK A01 T02190030  RH  029%=      5-min Rain = 0
KLE1 181757Z 26029G35KT 22/03 A2963 RMK A01 T02180030  RH  029%=      5-min Rain = 0
KLE1 181758Z 26037KT 22/03 A2963 RMK A01 T02190030  RH  029%=      5-min Rain = 0
KLE1 181759Z 26033KT 22/03 A2963 RMK A01 T02190029  RH  029%=      5-min Rain = 0
KLE1 181800Z 26035G40KT 22/03 A2963 RMK A01 T02190029  RH  029%=      5-min Rain = 0
KLE1 181801Z 26036KT 22/03 A2963 RMK A01 T02180028  RH  029%=      5-min Rain = 0
KLE1 181802Z 26032KT 22/03 A2963 RMK A01 T02180028  RH  029%=      5-min Rain = 0
KLE1 181803Z 26031G37KT 22/03 A2963 RMK A01 T02180029  RH  029%=      5-min Rain = 0
KLE1 181804Z 26030G36KT 22/03 A2963 RMK A01 T02180029  RH  029%=      5-min Rain = 0
KLE1 181805Z 26031G38KT 22/03 A2963 RMK A01 T02180030  RH  029%=      5-min Rain = 0
KLE1 181806Z 25035G40KT 22/03 A2962 RMK A01 T02190029  RH  029%=      5-min Rain = 0
KLE1 181807Z 25032G37KT 22/03 A2962 RMK A01 T02180027  RH  029%=      5-min Rain = 0
KLE1 181808Z 25036KT 22/03 A2962 RMK A01 T02160026  RH  028%=      5-min Rain = 0
KLE1 181809Z 26032G37KT 22/03 A2962 RMK A01 T02150025  RH  029%=      5-min Rain = 0
KLE1 181810Z 26033G39KT 22/03 A2962 RMK A01 T02150026  RH  029%=      5-min Rain = 0
KLE1 181811Z 26029G35KT 22/03 A2963 RMK A01 T02160027  RH  029%=      5-min Rain = 0
KLE1 181812Z 25033G38KT 22/03 A2962 RMK A01 T02170027  RH  029%=      5-min Rain = 0
KLE1 181813Z 26036KT 22/03 A2962 RMK A01 T02170026  RH  028%=      5-min Rain = 0
KLE1 181814Z 26035KT 22/03 A2962 RMK A01 T02160025  RH  028%=      5-min Rain = 0
KLE1 181815Z 26028G34KT 22/03 A2962 RMK A01 T02150025  RH  029%=      5-min Rain = 0
KLE1 181816Z 26030KT 22/03 A2962 RMK A01 T02160025  RH  028%=      5-min Rain = 0
KLE1 181817Z 26027G32KT 22/03 A2962 RMK A01 T02170026  RH  028%=      5-min Rain = 0
KLE1 181818Z 26025G32KT 22/03 A2962 RMK A01 T02190027  RH  028%=      5-min Rain = 0
KLE1 181819Z 26031G37KT 22/03 A2962 RMK A01 T02210027  RH  028%=      5-min Rain = 0
KLE1 181820Z 26027G35KT 22/03 A2961 RMK A01 T02210026  RH  028%=      5-min Rain = 0
KLE1 181821Z 25023G30KT 22/03 A2961 RMK A01 T02210026  RH  028%=      5-min Rain = 0
KLE1 181822Z 25025KT 22/03 A2961 RMK A01 T02230027  RH  027%=      5-min Rain = 0
KLE1 181823Z 25024KT 22/03 A2961 RMK A01 T02230026  RH  027%=      5-min Rain = 0
KLE1 181824Z 25024KT 22/03 A2961 RMK A01 T02240027  RH  027%=      5-min Rain = 0
KLE1 181825Z 25027G34KT 23/03 A2961 RMK A01 T02250026  RH  027%=      5-min Rain = 0
KLE1 181826Z 25025KT 23/03 A2961 RMK A01 T02250025  RH  027%=      5-min Rain = 0
KLE1 181827Z 25025KT 22/03 A2961 RMK A01 T02240025  RH  027%=      5-min Rain = 0
KLE1 181828Z 25022G27KT 22/03 A2961 RMK A01 T02240026  RH  027%=      5-min Rain = 0
KLE1 181829Z 25028G36KT 23/03 A296 RMK A01 T02260026  RH  027%=      5-min Rain = 0
KLE1 181830Z 25030KT 22/02 A296 RMK A01 T02240023  RH  027%=      5-min Rain = 0
KLE1 181831Z 24025KT 22/02 A296 RMK A01 T02210023  RH  027%=      5-min Rain = 0
KLE1 181832Z 25034G40KT 22/03 A296 RMK A01 T02220025  RH  027%=      5-min Rain = 0
KLE1 181833Z 25032G38KT 22/02 A296 RMK A01 T02200023  RH  027%=      5-min Rain = 0
KLE1 181834Z 25034G39KT 22/02 A296 RMK A01 T02190024  RH  028%=      5-min Rain = 0
KLE1 181835Z 25032G37KT 22/02 A296 RMK A01 T02180023  RH  028%=      5-min Rain = 0
KLE1 181836Z 25028KT 22/02 A296 RMK A01 T02160023  RH  028%=      5-min Rain = 0
KLE1 181837Z 25026G31KT 22/03 A296 RMK A01 T02170025  RH  028%=      5-min Rain = 0
KLE1 181838Z 25031G36KT 22/03 A296 RMK A01 T02200026  RH  028%=      5-min Rain = 0
KLE1 181839Z 25031G36KT 22/02 A296 RMK A01 T02190024  RH  028%=      5-min Rain = 0
KLE1 181840Z 25028G33KT 22/03 A296 RMK A01 T02180025  RH  028%=      5-min Rain = 0
KLE1 181841Z 25029G36KT 22/03 A296 RMK A01 T02180025  RH  028%=      5-min Rain = 0
KLE1 181842Z 25031KT 22/02 A296 RMK A01 T02180024  RH  028%=      5-min Rain = 0
KLE1 181843Z 25030G36KT 22/02 A296 RMK A01 T02170024  RH  028%=      5-min Rain = 0
KLE1 181844Z 25029G35KT 22/02 A296 RMK A01 T02160024  RH  028%=      5-min Rain = 0
KLE1 181845Z 25034G39KT 22/02 A2959 RMK A01 T02170024  RH  028%=      5-min Rain = 0
KLE1 181846Z 25030G36KT 22/02 A2959 RMK A01 T02160023  RH  028%=      5-min Rain = 0
KLE1 181847Z 25031KT 22/02 A2959 RMK A01 T02150023  RH  028%=      5-min Rain = 0
KLE1 181848Z 25028G33KT 22/02 A2959 RMK A01 T02160023  RH  028%=      5-min Rain = 0
KLE1 181849Z 25027G33KT 22/02 A2959 RMK A01 T02170024  RH  028%=      5-min Rain = 0
KLE1 181850Z 25029G36KT 22/02 A2959 RMK A01 T02180024  RH  028%=      5-min Rain = 0
KLE1 181851Z 25026G31KT 22/02 A2959 RMK A01 T02190023  RH  028%=      5-min Rain = 0
KLE1 181852Z 25025G30KT 22/03 A2959 RMK A01 T02200025  RH  028%=      5-min Rain = 0
KLE1 181853Z 25032G37KT 22/02 A2959 RMK A01 T02220024  RH  027%=      5-min Rain = 0
KLE1 181854Z 25032KT 22/02 A2959 RMK A01 T02200020  RH  027%=      5-min Rain = 0
KLE1 181855Z 25029G35KT 22/02 A2959 RMK A01 T02170020  RH  027%=      5-min Rain = 0
KLE1 181856Z 25031KT 22/02 A2959 RMK A01 T02180021  RH  027%=      5-min Rain = 0
KLE1 181857Z 25030G35KT 22/02 A2959 RMK A01 T02180020  RH  027%=      5-min Rain = 0
KLE1 181858Z 25031G37KT 22/02 A2959 RMK A01 T02170020  RH  027%=      5-min Rain = 0
KLE1 181859Z 25032KT 22/02 A2959 RMK A01 T02160019  RH  027%=      5-min Rain = 0
KLE1 181900Z 25027G33KT 22/02 A2959 RMK A01 T02170019  RH  027%=      5-min Rain = 0
KLE1 181901Z 25025G30KT 22/02 A2959 RMK A01 T02170019  RH  027%=      5-min Rain = 0
KLE1 181902Z 26027KT 22/02 A2958 RMK A01 T02190021  RH  027%=      5-min Rain = 0
KLE1 181903Z 26028KT 22/02 A2958 RMK A01 T02200020  RH  027%=      5-min Rain = 0
KLE1 181904Z 26025KT 22/02 A2958 RMK A01 T02190020  RH  027%=      5-min Rain = 0
KLE1 181905Z 26024KT 22/02 A2958 RMK A01 T02200022  RH  027%=      5-min Rain = 0
KLE1 181906Z 26029G34KT 22/02 A2958 RMK A01 T02220021  RH  027%=      5-min Rain = 0
KLE1 181907Z 25026G34KT 22/02 A2958 RMK A01 T02230021  RH  026%=      5-min Rain = 0
KLE1 181908Z 25025KT 22/02 A2958 RMK A01 T02230019  RH  026%=      5-min Rain = 0
KLE1 181909Z 25026G31KT 22/02 A2958 RMK A01 T02230019  RH  026%=      5-min Rain = 0
KLE1 181910Z 26028KT 22/02 A2958 RMK A01 T02230019  RH  026%=      5-min Rain = 0
KLE1 181911Z 25027G34KT 22/02 A2958 RMK A01 T02210018  RH  026%=      5-min Rain = 0
KLE1 181912Z 26028G35KT 22/02 A2958 RMK A01 T02200018  RH  026%=      5-min Rain = 0
KLE1 181913Z 26024G29KT 22/02 A2958 RMK A01 T02210019  RH  026%=      5-min Rain = 0
KLE1 181914Z 26025KT 22/02 A2957 RMK A01 T02210019  RH  026%=      5-min Rain = 0
KLE1 181915Z 25026G33KT 22/02 A2957 RMK A01 T02230020  RH  026%=      5-min Rain = 0
KLE1 181916Z 25026KT 22/02 A2957 RMK A01 T02240019  RH  026%=      5-min Rain = 0
KLE1 181917Z 25029G35KT 23/02 A2957 RMK A01 T02250019  RH  026%=      5-min Rain = 0
KLE1 181918Z 25031KT 23/02 A2957 RMK A01 T02250017  RH  025%=      5-min Rain = 0
KLE1 181919Z 25030KT 22/02 A2957 RMK A01 T02240016  RH  025%=      5-min Rain = 0
KLE1 181920Z 25030G35KT 22/02 A2956 RMK A01 T02230016  RH  026%=      5-min Rain = 0
KLE1 181921Z 26025G31KT 22/02 A2957 RMK A01 T02220017  RH  026%=      5-min Rain = 0
KLE1 181922Z 25025KT 22/02 A2957 RMK A01 T02240019  RH  026%=      5-min Rain = 0
KLE1 181923Z 26028KT 23/02 A2956 RMK A01 T02260019  RH  026%=      5-min Rain = 0
KLE1 181924Z 26028KT 23/02 A2956 RMK A01 T02270018  RH  025%=      5-min Rain = 0
KLE1 181925Z 26028KT 23/02 A2956 RMK A01 T02270018  RH  025%=      5-min Rain = 0
KLE1 181926Z 26028G33KT 23/02 A2956 RMK A01 T02270016  RH  025%=      5-min Rain = 0
KLE1 181927Z 26025G31KT 23/02 A2956 RMK A01 T02280017  RH  025%=      5-min Rain = 0
KLE1 181928Z 26024G31KT 23/02 A2956 RMK A01 T02280016  RH  025%=      5-min Rain = 0
KLE1 181929Z 27028KT 23/02 A2956 RMK A01 T02280015  RH  024%=      5-min Rain = 0
KLE1 181930Z 27026KT 23/01 A2956 RMK A01 T02270014  RH  024%=      5-min Rain = 0
KLE1 181931Z 25021KT 23/02 A2956 RMK A01 T02280016  RH  025%=      5-min Rain = 0
KLE1 181932Z 25023G30KT 23/02 A2955 RMK A01 T02310016  RH  024%=      5-min Rain = 0
KLE1 181933Z 25031G36KT 23/02 A2955 RMK A01 T02320016  RH  024%=      5-min Rain = 0
KLE1 181934Z 25027G32KT 23/01 A2955 RMK A01 T02300014  RH  024%=      5-min Rain = 0
KLE1 181935Z 26024G29KT 23/01 A2955 RMK A01 T02280014  RH  024%=      5-min Rain = 0
KLE1 181936Z 26026KT 23/02 A2955 RMK A01 T02280015  RH  025%=      5-min Rain = 0
KLE1 181937Z 26029KT 23/02 A2955 RMK A01 T02280015  RH  024%=      5-min Rain = 0
KLE1 181938Z 26025G36KT 23/01 A2955 RMK A01 T02280014  RH  024%=      5-min Rain = 0
KLE1 181939Z 25029G34KT 23/01 A2955 RMK A01 T02290013  RH  024%=      5-min Rain = 0
KLE1 181940Z 25031KT 23/01 A2955 RMK A01 T02290012  RH  024%=      5-min Rain = 0
KLE1 181941Z 26025G31KT 23/01 A2955 RMK A01 T02280012  RH  024%=      5-min Rain = 0
KLE1 181942Z 26031G37KT 23/01 A2954 RMK A01 T02300010  RH  023%=      5-min Rain = 0
KLE1 181943Z 25032G38KT 23/01 A2954 RMK A01 T02300007  RH  023%=      5-min Rain = 0
KLE1 181944Z 26032KT 23/01 A2954 RMK A01 T02300006  RH  023%=      5-min Rain = 0
KLE1 181945Z 26029KT 23/01 A2954 RMK A01 T02300006  RH  023%=      5-min Rain = 0
KLE1 181946Z 25028KT 23/00 A2954 RMK A01 T02300004  RH  023%=      5-min Rain = 0
KLE1 181947Z 26031G37KT 23/00 A2954 RMK A01 T02300002  RH  022%=      5-min Rain = 0
KLE1 181948Z 27024G30KT 23/00 A2954 RMK A01 T02300001  RH  022%=      5-min Rain = 0
KLE1 181949Z 27027KT 23/00 A2954 RMK A01 T02300003  RH  022%=      5-min Rain = 0
KLE1 181950Z 26028G33KT 23/00 A2954 RMK A01 T02310003  RH  022%=      5-min Rain = 0
KLE1 181951Z 26029G34KT 23/00 A2954 RMK A01 T02310003  RH  022%=      5-min Rain = 0
KLE1 181952Z 26030KT 23/00 A2954 RMK A01 T02310002  RH  022%=      5-min Rain = 0
KLE1 181953Z 26030KT 23/00 A2954 RMK A01 T02300003  RH  022%=      5-min Rain = 0
KLE1 181954Z 26034G39KT 23/00 A2954 RMK A01 T02300002  RH  022%=      5-min Rain = 0
KLE1 181955Z 27031KT 23/00 A2954 RMK A01 T02300001  RH  022%=      5-min Rain = 0
KLE1 181956Z 27029KT 23/00 A2954 RMK A01 T02280002  RH  022%=      5-min Rain = 0
KLE1 181957Z 27028KT 23/01 A2954 RMK A01 T02290005  RH  023%=      5-min Rain = 0
KLE1 181958Z 27028KT 23/01 A2954 RMK A01 T02300006  RH  023%=      5-min Rain = 0
KLE1 181959Z 27031KT 23/01 A2954 RMK A01 T02310005  RH  022%=      5-min Rain = 0
KLE1 182000Z 26033G39KT 23/01 A2953 RMK A01 T02310005  RH  022%=      5-min Rain = 0
KLE1 182001Z 27029KT 23/01 A2954 RMK A01 T02290005  RH  023%=      5-min Rain = 0
KLE1 182002Z 27025G30KT 23/00 A2954 RMK A01 T02290004  RH  023%=      5-min Rain = 0
KLE1 182003Z 26025G34KT 23/01 A2954 RMK A01 T02300007  RH  023%=      5-min Rain = 0
KLE1 182004Z 27028G33KT 23/01 A2953 RMK A01 T02320006  RH  022%=      5-min Rain = 0
KLE1 182005Z 27031G36KT 23/01 A2954 RMK A01 T02320007  RH  023%=      5-min Rain = 0
KLE1 182006Z 26031G36KT 23/01 A2953 RMK A01 T02310006  RH  023%=      5-min Rain = 0
KLE1 182007Z 26028G36KT 23/01 A2953 RMK A01 T02300007  RH  023%=      5-min Rain = 0
KLE1 182008Z 26026KT 23/01 A2953 RMK A01 T02310009  RH  023%=      5-min Rain = 0
KLE1 182009Z 27027G32KT 23/01 A2954 RMK A01 T02340009  RH  023%=      5-min Rain = 0
KLE1 182010Z 27028KT 24/00 A2954 RMK A01 T02350004  RH  022%=      5-min Rain = 0
KLE1 182011Z 27026KT 23/00 A2954 RMK A01 T02330001  RH  021%=      5-min Rain = 0
KLE1 182012Z 26027G34KT 23/00 A2954 RMK A01 T02320004  RH  022%=      5-min Rain = 0
KLE1 182013Z 26030G39KT 23/01 A2953 RMK A01 T02320005  RH  022%=      5-min Rain = 0
KLE1 182014Z 26035KT 23/01 A2953 RMK A01 T02310005  RH  022%=      5-min Rain = 0
KLE1 182015Z 25029KT 23/01 A2954 RMK A01 T02290005  RH  023%=      5-min Rain = 0
KLE1 182016Z 25033G41KT 23/00 A2953 RMK A01 T02300003  RH  022%=      5-min Rain = 0
KLE1 182017Z 25030G37KT 23/00 A2953 RMK A01 T02290004  RH  023%=      5-min Rain = 0
KLE1 182018Z 26029G35KT 23/01 A2953 RMK A01 T02290007  RH  023%=      5-min Rain = 0
KLE1 182019Z 26031KT 23/01 A2953 RMK A01 T02290007  RH  023%=      5-min Rain = 0
KLE1 182020Z 25031G38KT 23/01 A2953 RMK A01 T02290008  RH  023%=      5-min Rain = 0
KLE1 182021Z 26028G33KT 23/01 A2953 RMK A01 T02280005  RH  023%=      5-min Rain = 0
KLE1 182022Z 26028G34KT 23/01 A2953 RMK A01 T02290005  RH  023%=      5-min Rain = 0
KLE1 182023Z 26027KT 23/01 A2953 RMK A01 T02300005  RH  023%=      5-min Rain = 0
KLE1 182024Z 26023KT 23/01 A2954 RMK A01 T02310007  RH  023%=      5-min Rain = 0
KLE1 182025Z 26026KT 23/01 A2954 RMK A01 T02340008  RH  022%=      5-min Rain = 0
KLE1 182026Z 27023G31KT 23/01 A2954 RMK A01 T02340007  RH  022%=      5-min Rain = 0
KLE1 182027Z 27027KT 24/01 A2953 RMK A01 T02350005  RH  022%=      5-min Rain = 0
KLE1 182028Z 27026KT 23/01 A2953 RMK A01 T02340006  RH  022%=      5-min Rain = 0
KLE1 182029Z 26022KT 23/01 A2953 RMK A01 T02320008  RH  023%=      5-min Rain = 0
KLE1 182030Z 26024G30KT 23/01 A2953 RMK A01 T02340011  RH  023%=      5-min Rain = 0
KLE1 182031Z 26027KT 24/01 A2953 RMK A01 T02350011  RH  023%=      5-min Rain = 0
KLE1 182032Z 27024KT 23/01 A2953 RMK A01 T02340008  RH  023%=      5-min Rain = 0
KLE1 182033Z 26029G36KT 23/01 A2953 RMK A01 T02340005  RH  022%=      5-min Rain = 0
KLE1 182034Z 26027G35KT 23/00 A2953 RMK A01 T02340002  RH  022%=      5-min Rain = 0
KLE1 182035Z 27026G31KT 23/M00 A2953 RMK A01 T02321001  RH  021%=      5-min Rain = 0
KLE1 182036Z 27029G35KT 23/M00 A2953 RMK A01 T02321001  RH  021%=      5-min Rain = 0
KLE1 182037Z 26027KT 23/M01 A2953 RMK A01 T02321005  RH  021%=      5-min Rain = 0
KLE1 182038Z 26026G31KT 23/M01 A2953 RMK A01 T02311005  RH  021%=      5-min Rain = 0
KLE1 182039Z 27027KT 23/M01 A2953 RMK A01 T02331007  RH  020%=      5-min Rain = 0
KLE1 182040Z 28028G34KT 23/M01 A2953 RMK A01 T02331007  RH  020%=      5-min Rain = 0
KLE1 182041Z 28025KT 23/M01 A2953 RMK A01 T02331005  RH  021%=      5-min Rain = 0
KLE1 182042Z 27025KT 23/M01 A2953 RMK A01 T02331008  RH  020%=      5-min Rain = 0
KLE1 182043Z 27025KT 23/M01 A2953 RMK A01 T02301009  RH  020%=      5-min Rain = 0
KLE1 182044Z 26028G33KT 23/M01 A2952 RMK A01 T02291010  RH  020%=      5-min Rain = 0
KLE1 182045Z 26020G26KT 23/M01 A2952 RMK A01 T02291012  RH  020%=      5-min Rain = 0
KLE1 182046Z 26027KT 23/M01 A2952 RMK A01 T02311011  RH  020%=      5-min Rain = 0
KLE1 182047Z 26028KT 23/M01 A2952 RMK A01 T02321011  RH  020%=      5-min Rain = 0
KLE1 182048Z 26031KT 23/M01 A2952 RMK A01 T02321010  RH  020%=      5-min Rain = 0
KLE1 182049Z 27028KT 23/M01 A2952 RMK A01 T02311011  RH  020%=      5-min Rain = 0
KLE1 182050Z 27024G29KT 23/M01 A2952 RMK A01 T02291011  RH  020%=      5-min Rain = 0
KLE1 182051Z 27025G30KT 23/M01 A2952 RMK A01 T02291011  RH  020%=      5-min Rain = 0
KLE1 182052Z 27025G31KT 23/M01 A2952 RMK A01 T02281012  RH  020%=      5-min Rain = 0
KLE1 182053Z 27025G31KT 23/M02 A2952 RMK A01 T02281016  RH  020%=      5-min Rain = 0
KLE1 182054Z 28026G32KT 23/M02 A2952 RMK A01 T02261019  RH  019%=      5-min Rain = 0
KLE1 182055Z 28029G34KT 23/M03 A2952 RMK A01 T02251026  RH  018%=      5-min Rain = 0
KLE1 182056Z 27031G36KT 22/M03 A2952 RMK A01 T02241031  RH  018%=      5-min Rain = 0
KLE1 182057Z 26031G36KT 22/M04 A2952 RMK A01 T02231037  RH  017%=      5-min Rain = 0
KLE1 182058Z 27030G39KT 22/M04 A2953 RMK A01 T02221040  RH  017%=      5-min Rain = 0
KLE1 182059Z 27024G31KT 22/M04 A2953 RMK A01 T02221042  RH  017%=      5-min Rain = 0
KLE1 182100Z 27025G32KT 22/M04 A2953 RMK A01 T02221041  RH  017%=      5-min Rain = 0
KLE1 182101Z 27026G32KT 22/M04 A2953 RMK A01 T02241040  RH  017%=      5-min Rain = 0
KLE1 182102Z 27029KT 23/M04 A2953 RMK A01 T02261041  RH  016%=      5-min Rain = 0
KLE1 182103Z 27032G37KT 23/M04 A2953 RMK A01 T02271043  RH  016%=      5-min Rain = 0
KLE1 182104Z 28030KT 23/M05 A2953 RMK A01 T02261045  RH  016%=      5-min Rain = 0
KLE1 182105Z 28030G35KT 23/M05 A2953 RMK A01 T02251045  RH  016%=      5-min Rain = 0
KLE1 182106Z 29029KT 22/M05 A2953 RMK A01 T02241046  RH  016%=      5-min Rain = 0
KLE1 182107Z 29028G34KT 22/M05 A2953 RMK A01 T02231048  RH  016%=      5-min Rain = 0
KLE1 182108Z 29028KT 22/M05 A2953 RMK A01 T02221050  RH  016%=      5-min Rain = 0
KLE1 182109Z 29024G31KT 22/M05 A2953 RMK A01 T02221048  RH  016%=      5-min Rain = 0
KLE1 182110Z 29029KT 22/M05 A2953 RMK A01 T02221047  RH  016%=      5-min Rain = 0
KLE1 182111Z 29026KT 22/M05 A2953 RMK A01 T02221049  RH  016%=      5-min Rain = 0
KLE1 182112Z 29028KT 22/M05 A2953 RMK A01 T02221049  RH  016%=      5-min Rain = 0
KLE1 182113Z 29024G29KT 22/M05 A2953 RMK A01 T02221047  RH  016%=      5-min Rain = 0
KLE1 182114Z 28020KT 22/M05 A2953 RMK A01 T02221045  RH  016%=      5-min Rain = 0
KLE1 182115Z 29027G32KT 22/M04 A2953 RMK A01 T02241044  RH  016%=      5-min Rain = 0
KLE1 182116Z 29027G34KT 22/M05 A2953 RMK A01 T02241049  RH  016%=      5-min Rain = 0
KLE1 182117Z 28032KT 23/M06 A2953 RMK A01 T02251057  RH  015%=      5-min Rain = 0
KLE1 182118Z 28028KT 22/M06 A2954 RMK A01 T02241059  RH  015%=      5-min Rain = 0
KLE1 182119Z 28026KT 23/M06 A2954 RMK A01 T02251056  RH  015%=      5-min Rain = 0
KLE1 182120Z 28027G33KT 23/M06 A2954 RMK A01 T02261055  RH  015%=      5-min Rain = 0
KLE1 182121Z 28028G33KT 23/M06 A2954 RMK A01 T02261055  RH  015%=      5-min Rain = 0
KLE1 182122Z 28028KT 23/M06 A2954 RMK A01 T02251055  RH  015%=      5-min Rain = 0
KLE1 182123Z 28022G28KT 22/M06 A2954 RMK A01 T02241055  RH  015%=      5-min Rain = 0
KLE1 182124Z 28024G29KT 22/M05 A2954 RMK A01 T02241052  RH  015%=      5-min Rain = 0
KLE1 182125Z 29024G31KT 23/M05 A2954 RMK A01 T02261051  RH  015%=      5-min Rain = 0
KLE1 182126Z 29031KT 23/M05 A2954 RMK A01 T02261050  RH  015%=      5-min Rain = 0
KLE1 182127Z 28029KT 23/M05 A2954 RMK A01 T02261051  RH  015%=      5-min Rain = 0
KLE1 182128Z 28025KT 23/M05 A2954 RMK A01 T02251050  RH  016%=      5-min Rain = 0
KLE1 182129Z 28027KT 22/M05 A2954 RMK A01 T02241046  RH  016%=      5-min Rain = 0
KLE1 182130Z 28027G32KT 22/M04 A2954 RMK A01 T02241042  RH  017%=      5-min Rain = 0
KLE1 182131Z 28028KT 22/M04 A2954 RMK A01 T02221041  RH  017%=      5-min Rain = 0
KLE1 182132Z 28022KT 22/M04 A2954 RMK A01 T02191040  RH  017%=      5-min Rain = 0
KLE1 182133Z 27026KT 22/M04 A2954 RMK A01 T02181038  RH  018%=      5-min Rain = 0
KLE1 182134Z 27024KT 22/M04 A2954 RMK A01 T02171040  RH  018%=      5-min Rain = 0
KLE1 182135Z 28023KT 22/M04 A2954 RMK A01 T02151040  RH  018%=      5-min Rain = 0
KLE1 182136Z 28023KT 22/M04 A2954 RMK A01 T02151039  RH  018%=      5-min Rain = 0
KLE1 182137Z 27023KT 22/M04 A2954 RMK A01 T02151036  RH  018%=      5-min Rain = 0
KLE1 182138Z 27023KT 21/M03 A2954 RMK A01 T02141031  RH  019%=      5-min Rain = 0
KLE1 182139Z 28019KT 21/M03 A2954 RMK A01 T02141030  RH  019%=      5-min Rain = 0
KLE1 182140Z 28023KT 21/M03 A2954 RMK A01 T02131033  RH  019%=      5-min Rain = 0
KLE1 182141Z 28019KT 21/M04 A2954 RMK A01 T02131035  RH  019%=      5-min Rain = 0
KLE1 182142Z 26022G28KT 21/M03 A2954 RMK A01 T02131031  RH  019%=      5-min Rain = 0
KLE1 182143Z 27024KT 21/M03 A2954 RMK A01 T02141026  RH  020%=      5-min Rain = 0
KLE1 182144Z 27020KT 21/M03 A2954 RMK A01 T02141026  RH  020%=      5-min Rain = 0
KLE1 182145Z 27017KT 21/M03 A2955 RMK A01 T02131026  RH  020%=      5-min Rain = 0
KLE1 182146Z 27018KT 21/M02 A2955 RMK A01 T02131024  RH  020%=      5-min Rain = 0
KLE1 182147Z 26022KT 21/M02 A2955 RMK A01 T02131019  RH  021%=      5-min Rain = 0
KLE1 182148Z 26025KT 21/M01 A2954 RMK A01 T02131014  RH  022%=      5-min Rain = 0
KLE1 182149Z 26025KT 21/M01 A2954 RMK A01 T02131012  RH  022%=      5-min Rain = 0
KLE1 182150Z 27023KT 21/M01 A2955 RMK A01 T02131011  RH  022%=      5-min Rain = 0
KLE1 182151Z 27022KT 21/M01 A2955 RMK A01 T02121011  RH  022%=      5-min Rain = 0
KLE1 182152Z 27021KT 21/M01 A2955 RMK A01 T02121011  RH  022%=      5-min Rain = 0
KLE1 182153Z 27024KT 21/M01 A2955 RMK A01 T02121010  RH  023%=      5-min Rain = 0
KLE1 182154Z 27023G28KT 21/M01 A2955 RMK A01 T02111010  RH  023%=      5-min Rain = 0
KLE1 182155Z 26021G28KT 21/M01 A2955 RMK A01 T02111011  RH  023%=      5-min Rain = 0
KLE1 182156Z 26022KT 21/M01 A2955 RMK A01 T02111010  RH  023%=      5-min Rain = 0
KLE1 182157Z 26023G31KT 21/M01 A2955 RMK A01 T02101011  RH  023%=      5-min Rain = 0
KLE1 182158Z 26024KT 21/M01 A2955 RMK A01 T02101012  RH  022%=      5-min Rain = 0
KLE1 182159Z 27023KT 21/M01 A2955 RMK A01 T02101013  RH  022%=      5-min Rain = 0
KLE1 182200Z 26022KT 21/M01 A2955 RMK A01 T02101011  RH  023%=      5-min Rain = 0
KLE1 182201Z 26019KT 21/M01 A2955 RMK A01 T02091012  RH  023%=      5-min Rain = 0
KLE1 182202Z 26019KT 21/M01 A2955 RMK A01 T02091011  RH  023%=      5-min Rain = 0
KLE1 182203Z 26020KT 21/M01 A2955 RMK A01 T02091010  RH  023%=      5-min Rain = 0
KLE1 182204Z 27021KT 21/M01 A2955 RMK A01 T02091010  RH  023%=      5-min Rain = 0
KLE1 182205Z 26022KT 21/M01 A2955 RMK A01 T02091010  RH  023%=      5-min Rain = 0
KLE1 182206Z 27020KT 21/M01 A2955 RMK A01 T02091010  RH  023%=      5-min Rain = 0
KLE1 182207Z 27021KT 21/M01 A2955 RMK A01 T02091010  RH  023%=      5-min Rain = 0
KLE1 182208Z 26021KT 21/M01 A2955 RMK A01 T02091011  RH  023%=      5-min Rain = 0
KLE1 182209Z 27020KT 21/M01 A2955 RMK A01 T02101011  RH  023%=      5-min Rain = 0
KLE1 182210Z 26026KT 21/M01 A2955 RMK A01 T02101011  RH  023%=      5-min Rain = 0
KLE1 182211Z 26024KT 21/M01 A2955 RMK A01 T02111013  RH  022%=      5-min Rain = 0
KLE1 182212Z 26021KT 21/M01 A2955 RMK A01 T02111012  RH  022%=      5-min Rain = 0
KLE1 182213Z 27019KT 21/M01 A2955 RMK A01 T02121012  RH  022%=      5-min Rain = 0
KLE1 182214Z 27019G24KT 21/M01 A2955 RMK A01 T02121012  RH  022%=      5-min Rain = 0
KLE1 182215Z 27023KT 21/M01 A2955 RMK A01 T02121013  RH  022%=      5-min Rain = 0
KLE1 182216Z 27023KT 21/M02 A2955 RMK A01 T02121017  RH  021%=      5-min Rain = 0
KLE1 182217Z 27019KT 21/M02 A2955 RMK A01 T02131017  RH  021%=      5-min Rain = 0
KLE1 182218Z 27019G24KT 21/M02 A2955 RMK A01 T02141017  RH  021%=      5-min Rain = 0
KLE1 182219Z 27020KT 22/M02 A2955 RMK A01 T02151017  RH  021%=      5-min Rain = 0
KLE1 182220Z 27020KT 22/M02 A2955 RMK A01 T02151018  RH  021%=      5-min Rain = 0
KLE1 182221Z 27017KT 22/M02 A2955 RMK A01 T02151017  RH  021%=      5-min Rain = 0
KLE1 182222Z 27020KT 21/M02 A2955 RMK A01 T02141017  RH  021%=      5-min Rain = 0
KLE1 182223Z 27022KT 21/M02 A2955 RMK A01 T02141019  RH  021%=      5-min Rain = 0
KLE1 182224Z 27022KT 21/M02 A2955 RMK A01 T02131023  RH  021%=      5-min Rain = 0
KLE1 182225Z 27020KT 21/M03 A2955 RMK A01 T02131025  RH  020%=      5-min Rain = 0
KLE1 182226Z 27018KT 21/M02 A2955 RMK A01 T02121024  RH  020%=      5-min Rain = 0
KLE1 182227Z 28020KT 21/M02 A2955 RMK A01 T02121022  RH  021%=      5-min Rain = 0
KLE1 182228Z 27021KT 21/M02 A2955 RMK A01 T02121019  RH  021%=      5-min Rain = 0
KLE1 182229Z 28022KT 21/M02 A2955 RMK A01 T02121016  RH  021%=      5-min Rain = 0
KLE1 182230Z 27018KT 21/M02 A2956 RMK A01 T02121017  RH  021%=      5-min Rain = 0
KLE1 182231Z 27020G25KT 21/M02 A2955 RMK A01 T02111017  RH  021%=      5-min Rain = 0
KLE1 182232Z 27023KT 21/M02 A2955 RMK A01 T02101019  RH  021%=      5-min Rain = 0
KLE1 182233Z 27022KT 21/M02 A2955 RMK A01 T02091018  RH  022%=      5-min Rain = 0
KLE1 182234Z 27025G31KT 21/M02 A2955 RMK A01 T02091017  RH  022%=      5-min Rain = 0
KLE1 182235Z 26027KT 21/M02 A2955 RMK A01 T02081022  RH  021%=      5-min Rain = 0
KLE1 182236Z 27023KT 21/M03 A2955 RMK A01 T02081029  RH  020%=      5-min Rain = 0
KLE1 182237Z 27023KT 21/M03 A2955 RMK A01 T02081032  RH  020%=      5-min Rain = 0
KLE1 182238Z 27019KT 21/M03 A2956 RMK A01 T02071031  RH  020%=      5-min Rain = 0
KLE1 182239Z 28016KT 21/M02 A2956 RMK A01 T02061024  RH  021%=      5-min Rain = 0
KLE1 182240Z 27016G21KT 21/M02 A2956 RMK A01 T02051021  RH  022%=      5-min Rain = 0
KLE1 182241Z 27018KT 20/M02 A2956 RMK A01 T02041022  RH  022%=      5-min Rain = 0
KLE1 182242Z 27022KT 20/M03 A2956 RMK A01 T02031033  RH  020%=      5-min Rain = 0
KLE1 182243Z 28021KT 20/M04 A2956 RMK A01 T02031042  RH  019%=      5-min Rain = 0
KLE1 182244Z 28023KT 20/M04 A2956 RMK A01 T02021041  RH  019%=      5-min Rain = 0
KLE1 182245Z 28023KT 20/M04 A2956 RMK A01 T02011043  RH  019%=      5-min Rain = 0
KLE1 182246Z 28019KT 20/M04 A2956 RMK A01 T02011044  RH  019%=      5-min Rain = 0
KLE1 182247Z 28020KT 20/M04 A2956 RMK A01 T02001044  RH  019%=      5-min Rain = 0
KLE1 182248Z 28020KT 20/M04 A2956 RMK A01 T01991044  RH  019%=      5-min Rain = 0
KLE1 182249Z 28021KT 20/M05 A2956 RMK A01 T01991045  RH  019%=      5-min Rain = 0
KLE1 182250Z 28018KT 20/M04 A2956 RMK A01 T01981044  RH  019%=      5-min Rain = 0
KLE1 182251Z 28019KT 20/M04 A2956 RMK A01 T01981044  RH  019%=      5-min Rain = 0
KLE1 182252Z 28018KT 20/M04 A2956 RMK A01 T01971043  RH  019%=      5-min Rain = 0
KLE1 182253Z 28019KT 20/M04 A2956 RMK A01 T01971043  RH  019%=      5-min Rain = 0
KLE1 182254Z 28020KT 20/M04 A2956 RMK A01 T01961042  RH  020%=      5-min Rain = 0
KLE1 182255Z 28019KT 20/M04 A2956 RMK A01 T01971041  RH  020%=      5-min Rain = 0
KLE1 182256Z 28016KT 20/M04 A2956 RMK A01 T01971040  RH  020%=      5-min Rain = 0
KLE1 182257Z 28017KT 20/M04 A2956 RMK A01 T01951040  RH  020%=      5-min Rain = 0
KLE1 182258Z 28017KT 19/M04 A2956 RMK A01 T01941039  RH  020%=      5-min Rain = 0
KLE1 182259Z 28016KT 19/M04 A2956 RMK A01 T01941039  RH  020%=      5-min Rain = 0
KLE1 182300Z 28014KT 19/M04 A2956 RMK A01 T01931038  RH  021%=      5-min Rain = 0
KLE1 182301Z 27013KT 19/M04 A2956 RMK A01 T01931038  RH  021%=      5-min Rain = 0
KLE1 182302Z 28012KT 19/M04 A2956 RMK A01 T01911038  RH  021%=      5-min Rain = 0
KLE1 182303Z 28012KT 19/M04 A2956 RMK A01 T01901037  RH  021%=      5-min Rain = 0
KLE1 182304Z 28012KT 19/M04 A2956 RMK A01 T01891037  RH  021%=      5-min Rain = 0
KLE1 182305Z 27012KT 19/M04 A2956 RMK A01 T01881037  RH  022%=      5-min Rain = 0
KLE1 182306Z 27012KT 19/M04 A2956 RMK A01 T01871037  RH  022%=      5-min Rain = 0
KLE1 182307Z 27012KT 19/M04 A2956 RMK A01 T01871037  RH  022%=      5-min Rain = 0
KLE1 182308Z 27011KT 19/M04 A2957 RMK A01 T01871036  RH  022%=      5-min Rain = 0
KLE1 182309Z 28012KT 19/M04 A2957 RMK A01 T01861036  RH  022%=      5-min Rain = 0
KLE1 182310Z 28011KT 19/M04 A2957 RMK A01 T01851036  RH  022%=      5-min Rain = 0
KLE1 182311Z 28011KT 19/M04 A2957 RMK A01 T01851036  RH  022%=      5-min Rain = 0
KLE1 182312Z 28011KT 18/M04 A2957 RMK A01 T01841036  RH  022%=      5-min Rain = 0
KLE1 182313Z 28011KT 18/M04 A2957 RMK A01 T01831036  RH  022%=      5-min Rain = 0
KLE1 182314Z 28011KT 18/M04 A2957 RMK A01 T01831036  RH  022%=      5-min Rain = 0
KLE1 182315Z 28011KT 18/M04 A2957 RMK A01 T01821036  RH  022%=      5-min Rain = 0
KLE1 182316Z 29012KT 18/M04 A2957 RMK A01 T01821036  RH  022%=      5-min Rain = 0
KLE1 182317Z 30014G21KT 18/M04 A2957 RMK A01 T01821037  RH  022%=      5-min Rain = 0
KLE1 182318Z 29014KT 19/M04 A2957 RMK A01 T01851040  RH  021%=      5-min Rain = 0
KLE1 182319Z 29013KT 19/M04 A2957 RMK A01 T01871040  RH  021%=      5-min Rain = 0
KLE1 182320Z 29014KT 19/M04 A2957 RMK A01 T01871040  RH  021%=      5-min Rain = 0
KLE1 182321Z 29015G20KT 19/M04 A2957 RMK A01 T01871041  RH  021%=      5-min Rain = 0
KLE1 182322Z 28024G31KT 19/M04 A2957 RMK A01 T01881042  RH  021%=      5-min Rain = 0
KLE1 182323Z 28025KT 19/M03 A2957 RMK A01 T01901034  RH  022%=      5-min Rain = 0
KLE1 182324Z 28026KT 19/M03 A2957 RMK A01 T01911028  RH  023%=      5-min Rain = 0
KLE1 182325Z 28025KT 19/M03 A2957 RMK A01 T01911026  RH  023%=      5-min Rain = 0
KLE1 182326Z 27022KT 19/M02 A2957 RMK A01 T01911024  RH  023%=      5-min Rain = 0
KLE1 182327Z 27020KT 19/M02 A2957 RMK A01 T01901023  RH  023%=      5-min Rain = 0
KLE1 182328Z 27018KT 19/M02 A2957 RMK A01 T01881023  RH  024%=      5-min Rain = 0
KLE1 182329Z 27020G25KT 19/M02 A2957 RMK A01 T01871023  RH  024%=      5-min Rain = 0
KLE1 182330Z 27024KT 19/M02 A2957 RMK A01 T01861020  RH  025%=      5-min Rain = 0
KLE1 182331Z 27025KT 19/M02 A2958 RMK A01 T01861019  RH  025%=      5-min Rain = 0
KLE1 182332Z 27027KT 19/M02 A2958 RMK A01 T01861019  RH  025%=      5-min Rain = 0
KLE1 182333Z 27025KT 19/M02 A2958 RMK A01 T01871018  RH  025%=      5-min Rain = 0
KLE1 182334Z 28023KT 19/M02 A2959 RMK A01 T01871016  RH  025%=      5-min Rain = 0
KLE1 182335Z 32024G31KT 19/M02 A2961 RMK A01 T01861015  RH  026%=      5-min Rain = 0
KLE1 182336Z 34020KT 18/M01 A2961 RMK A01 T01781006  RH  029%=      5-min Rain = 0
KLE1 182337Z 35027G33KT 16/00 A2961 RMK A01 T01630000  RH  033%=      5-min Rain = 0
KLE1 182338Z 35024KT 15/00 A2961 RMK A01 T01470001  RH  037%=      5-min Rain = 0
KLE1 182339Z 35026G38KT 14/00 A296 RMK A01 T01370003  RH  040%=      5-min Rain = 0
KLE1 182340Z 35032KT 13/01 A296 RMK A01 T01310005  RH  042%=      5-min Rain = 0
KLE1 182341Z 36028G33KT 13/01 A2961 RMK A01 T01280006  RH  043%=      5-min Rain = 0
KLE1 182342Z 35028KT 13/01 A2961 RMK A01 T01250006  RH  044%=      5-min Rain = 0
KLE1 182343Z 36030G35KT 12/01 A2962 RMK A01 T01240007  RH  045%=      5-min Rain = 0
KLE1 182344Z 35028G34KT 12/01 A2962 RMK A01 T01220007  RH  045%=      5-min Rain = 0
KLE1 182345Z 35024KT 12/01 A2962 RMK A01 T01220007  RH  046%=      5-min Rain = 0
KLE1 182346Z 35027G33KT 12/01 A2962 RMK A01 T01200007  RH  046%=      5-min Rain = 0
KLE1 182347Z 35030G35KT 12/01 A2961 RMK A01 T01190007  RH  046%=      5-min Rain = 0
KLE1 182348Z 34026G33KT 12/01 A2961 RMK A01 T01180007  RH  047%=      5-min Rain = 0
KLE1 182349Z 34030G35KT 12/01 A2961 RMK A01 T01160007  RH  047%=      5-min Rain = 0
KLE1 182350Z 34031G36KT 12/01 A2961 RMK A01 T01150007  RH  047%=      5-min Rain = 0
KLE1 182351Z 34031G37KT 11/01 A2961 RMK A01 T01130006  RH  048%=      5-min Rain = 0
KLE1 182352Z 34029G34KT 11/01 A2961 RMK A01 T01120007  RH  048%=      5-min Rain = 0
KLE1 182353Z 35030G38KT 11/01 A2961 RMK A01 T01110007  RH  049%=      5-min Rain = 0
KLE1 182354Z 35033KT 11/01 A2961 RMK A01 T01100007  RH  049%=      5-min Rain = 0
KLE1 182355Z 35029G35KT 11/01 A2961 RMK A01 T01080007  RH  050%=      5-min Rain = 0
KLE1 182356Z 35024G29KT 11/01 A2961 RMK A01 T01070007  RH  050%=      5-min Rain = 0
KLE1 182357Z 35030G35KT 11/01 A2961 RMK A01 T01060006  RH  050%=      5-min Rain = 0
KLE1 182358Z 35028G33KT 11/01 A2961 RMK A01 T01050006  RH  050%=      5-min Rain = 0
KLE1 182359Z 35028G34KT 10/01 A2961 RMK A01 T01040006  RH  051%=      5-min Rain = 0
KLE1 190000Z 35032G39KT 10/01 A2961 RMK A01 T01030006  RH  051%=      5-min Rain = 0
KLE1 190001Z 35031KT 10/01 A2961 RMK A01 T01020005  RH  051%=      5-min Rain = 0
KLE1 190002Z 35029G34KT 10/00 A2961 RMK A01 T01000004  RH  051%=      5-min Rain = 0
KLE1 190003Z 35031G38KT 10/00 A2961 RMK A01 T00990004  RH  052%=      5-min Rain = 0
KLE1 190004Z 36030G40KT 10/00 A2961 RMK A01 T00980004  RH  052%=      5-min Rain = 0
KLE1 190005Z 35027G33KT 10/00 A2961 RMK A01 T00960003  RH  052%=      5-min Rain = 0
KLE1 190006Z 35027KT 10/00 A2962 RMK A01 T00950003  RH  053%=      5-min Rain = 0
KLE1 190007Z 34027G33KT 09/00 A2962 RMK A01 T00930003  RH  053%=      5-min Rain = 0
KLE1 190008Z 34031G36KT 09/00 A2963 RMK A01 T00920003  RH  054%=      5-min Rain = 0
KLE1 190009Z 35027G32KT 09/00 A2963 RMK A01 T00900003  RH  054%=      5-min Rain = 0
KLE1 190010Z 35029KT 09/00 A2963 RMK A01 T00890003  RH  055%=      5-min Rain = 0
KLE1 190011Z 34028G33KT 09/00 A2963 RMK A01 T00880003  RH  055%=      5-min Rain = 0
KLE1 190012Z 35029KT 09/00 A2962 RMK A01 T00870003  RH  056%=      5-min Rain = 0
KLE1 190013Z 35029KT 09/00 A2962 RMK A01 T00860003  RH  056%=      5-min Rain = 0
KLE1 190014Z 35026G33KT 09/00 A2962 RMK A01 T00850003  RH  057%=      5-min Rain = 0
KLE1 190015Z 00027G35KT 08/00 A2962 RMK A01 T00840004  RH  057%=      5-min Rain = 0
KLE1 190016Z 36025KT 08/00 A2962 RMK A01 T00830003  RH  057%=      5-min Rain = 0
KLE1 190017Z 36025G31KT 08/00 A2963 RMK A01 T00830003  RH  057%=      5-min Rain = 0
KLE1 190018Z 35026G34KT 08/00 A2963 RMK A01 T00820004  RH  058%=      5-min Rain = 0
KLE1 190019Z 35022G28KT 08/00 A2963 RMK A01 T00810003  RH  058%=      5-min Rain = 0
KLE1 190020Z 36028G36KT 08/00 A2963 RMK A01 T00800003  RH  058%=      5-min Rain = 0
KLE1 190021Z 35028KT 08/00 A2964 RMK A01 T00780003  RH  059%=      5-min Rain = 0
KLE1 190022Z 35027G34KT 08/00 A2964 RMK A01 T00770002  RH  059%=      5-min Rain = 0
KLE1 190023Z 36025G31KT 08/00 A2964 RMK A01 T00750002  RH  060%=      5-min Rain = 0
KLE1 190024Z 36026KT 07/00 A2964 RMK A01 T00740002  RH  060%=      5-min Rain = 0
KLE1 190025Z 35028KT 07/00 A2964 RMK A01 T00730003  RH  061%=      5-min Rain = 0
KLE1 190026Z 36028G35KT 07/00 A2964 RMK A01 T00720003  RH  061%=      5-min Rain = 0
KLE1 190027Z 35026KT 07/00 A2965 RMK A01 T00710003  RH  062%=      5-min Rain = 0
KLE1 190028Z 35026G32KT 07/00 A2965 RMK A01 T00700003  RH  062%=      5-min Rain = 0
KLE1 190029Z 35025G31KT 07/00 A2965 RMK A01 T00700003  RH  063%=      5-min Rain = 0
KLE1 190030Z 35023G28KT 07/00 A2965 RMK A01 T00690003  RH  063%=      5-min Rain = 0
KLE1 190031Z 35025G31KT 07/00 A2965 RMK A01 T00680003  RH  063%=      5-min Rain = 0
KLE1 190032Z 35021KT 07/00 A2965 RMK A01 T00670002  RH  063%=      5-min Rain = 0
KLE1 190033Z 35025G33KT 07/00 A2965 RMK A01 T00660002  RH  064%=      5-min Rain = 0
KLE1 190034Z 35033G38KT 07/00 A2965 RMK A01 T00650003  RH  064%=      5-min Rain = 0
KLE1 190035Z 35034G40KT 06/00 A2966 RMK A01 T00640003  RH  065%=      5-min Rain = 0
KLE1 190036Z 35031KT 06/00 A2966 RMK A01 T00630003  RH  065%=      5-min Rain = 0
KLE1 190037Z 35031G38KT 06/00 A2966 RMK A01 T00630003  RH  066%=      5-min Rain = 0
KLE1 190038Z 35035G40KT 06/00 A2966 RMK A01 T00620002  RH  066%=      5-min Rain = 0
KLE1 190039Z 35034G39KT 06/00 A2966 RMK A01 T00610002  RH  066%=      5-min Rain = 0
KLE1 190040Z 35029G37KT 06/00 A2966 RMK A01 T00610002  RH  066%=      5-min Rain = 0
KLE1 190041Z 34030KT 06/00 A2967 RMK A01 T00600002  RH  066%=      5-min Rain = 0
KLE1 190042Z 34028G34KT 06/00 A2967 RMK A01 T00600002  RH  066%=      5-min Rain = 0
KLE1 190043Z 34028KT 06/00 A2967 RMK A01 T00600002  RH  067%=      5-min Rain = 0
KLE1 190044Z 34031G37KT 06/00 A2968 RMK A01 T00590002  RH  067%=      5-min Rain = 0
KLE1 190045Z 34027G33KT 06/00 A2968 RMK A01 T00590002  RH  067%=      5-min Rain = 0
KLE1 190046Z 34024KT 06/00 A2968 RMK A01 T00590002  RH  067%=      5-min Rain = 0
KLE1 190047Z 33022KT 06/00 A2969 RMK A01 T00580002  RH  067%=      5-min Rain = 0
KLE1 190048Z 32019KT 06/00 A297 RMK A01 T00580002  RH  067%=      5-min Rain = 0
KLE1 190049Z 33024G33KT 06/00 A297 RMK A01 T00580002  RH  068%=      5-min Rain = 0
KLE1 190050Z 33022G28KT 06/00 A2971 RMK A01 T00570002  RH  068%=      5-min Rain = 0
KLE1 190051Z 32024KT 06/00 A2971 RMK A01 T00570003  RH  068%=      5-min Rain = 0
KLE1 190052Z 32027KT 06/00 A2972 RMK A01 T00570003  RH  068%=      5-min Rain = 0
KLE1 190053Z 32020G25KT 06/00 A2972 RMK A01 T00570003  RH  068%=      5-min Rain = 0
KLE1 190054Z 32022G28KT 06/00 A2973 RMK A01 T00570003  RH  068%=      5-min Rain = 0
KLE1 190055Z 32018G26KT 06/00 A2973 RMK A01 T00570003  RH  068%=      5-min Rain = 0
KLE1 190056Z 31019KT 06/00 A2973 RMK A01 T00570003  RH  068%=      5-min Rain = 0
KLE1 190057Z 32019G26KT 06/00 A2973 RMK A01 T00560003  RH  068%=      5-min Rain = 0
KLE1 190058Z 32024KT 06/00 A2973 RMK A01 T00560003  RH  068%=      5-min Rain = 0
KLE1 190059Z 32017KT 06/00 A2974 RMK A01 T00560003  RH  068%=      5-min Rain = 0
KLE1 190100Z 32017KT 06/00 A2974 RMK A01 T00560003  RH  069%=      5-min Rain = 0
KLE1 190101Z 32017KT 06/00 A2974 RMK A01 T00560003  RH  069%=      5-min Rain = 0
KLE1 190102Z 32019G26KT 06/00 A2974 RMK A01 T00550003  RH  069%=      5-min Rain = 0
KLE1 190103Z 32020G25KT 06/00 A2974 RMK A01 T00550003  RH  069%=      5-min Rain = 0
KLE1 190104Z 33022KT 06/00 A2974 RMK A01 T00550003  RH  069%=      5-min Rain = 0
KLE1 190105Z 33019G25KT 06/00 A2974 RMK A01 T00550003  RH  069%=      5-min Rain = 0
KLE1 190106Z 33024G30KT 06/00 A2974 RMK A01 T00550003  RH  069%=      5-min Rain = 0
KLE1 190107Z 33026G31KT 06/00 A2974 RMK A01 T00550003  RH  069%=      5-min Rain = 0
KLE1 190108Z 32023KT 06/00 A2974 RMK A01 T00550003  RH  069%=      5-min Rain = 0
KLE1 190109Z 32023G28KT 06/00 A2975 RMK A01 T00550002  RH  069%=      5-min Rain = 0
KLE1 190110Z 32022G27KT 06/00 A2975 RMK A01 T00550002  RH  069%=      5-min Rain = 0
KLE1 190111Z 33025KT 06/00 A2975 RMK A01 T00550003  RH  069%=      5-min Rain = 0
KLE1 190112Z 34028KT 06/00 A2975 RMK A01 T00550003  RH  069%=      5-min Rain = 0
KLE1 190113Z 33026KT 06/00 A2975 RMK A01 T00560003  RH  069%=      5-min Rain = 0
KLE1 190114Z 34028G34KT 06/00 A2976 RMK A01 T00550003  RH  069%=      5-min Rain = 0
KLE1 190115Z 35025KT 06/00 A2976 RMK A01 T00560003  RH  069%=      5-min Rain = 0
KLE1 190116Z 34022G29KT 06/00 A2976 RMK A01 T00550003  RH  069%=      5-min Rain = 0
KLE1 190117Z 35026G31KT 06/00 A2976 RMK A01 T00550003  RH  069%=      5-min Rain = 0
KLE1 190118Z 34020G25KT 06/00 A2976 RMK A01 T00550003  RH  069%=      5-min Rain = 0
KLE1 190119Z 33022KT 06/00 A2977 RMK A01 T00550003  RH  069%=      5-min Rain = 0
KLE1 190120Z 33023KT 06/00 A2977 RMK A01 T00550003  RH  069%=      5-min Rain = 0
KLE1 190121Z 33023KT 06/00 A2977 RMK A01 T00550003  RH  069%=      5-min Rain = 0
KLE1 190122Z 33022G27KT 06/00 A2977 RMK A01 T00550003  RH  069%=      5-min Rain = 0
KLE1 190123Z 34026G33KT 06/00 A2977 RMK A01 T00550003  RH  069%=      5-min Rain = 0
KLE1 190124Z 33028G33KT 06/00 A2977 RMK A01 T00550003  RH  069%=      5-min Rain = 0
KLE1 190125Z 33026G31KT 06/00 A2978 RMK A01 T00550003  RH  069%=      5-min Rain = 0
KLE1 190126Z 33027G35KT 05/00 A2978 RMK A01 T00540003  RH  070%=      5-min Rain = 0
KLE1 190127Z 33025G30KT 05/00 A2978 RMK A01 T00540004  RH  070%=      5-min Rain = 0
KLE1 190128Z 33030G35KT 05/00 A2978 RMK A01 T00540004  RH  070%=      5-min Rain = 0
KLE1 190129Z 33025G33KT 05/00 A2978 RMK A01 T00540004  RH  070%=      5-min Rain = 0
KLE1 190130Z 33022KT 05/00 A2979 RMK A01 T00540004  RH  070%=      5-min Rain = 0
KLE1 190131Z 33023G28KT 05/00 A2979 RMK A01 T00540004  RH  070%=      5-min Rain = 0
KLE1 190132Z 33023KT 05/00 A2979 RMK A01 T00540004  RH  070%=      5-min Rain = 0
KLE1 190133Z 34021G29KT 05/00 A2979 RMK A01 T00540004  RH  070%=      5-min Rain = 0
KLE1 190134Z 33022G33KT 05/00 A2979 RMK A01 T00540004  RH  070%=      5-min Rain = 0
KLE1 190135Z 33026G33KT 05/00 A2979 RMK A01 T00540004  RH  070%=      5-min Rain = 0
KLE1 190136Z 33022G27KT 05/00 A2979 RMK A01 T00540004  RH  070%=      5-min Rain = 0
KLE1 190137Z 33019G24KT 05/00 A298 RMK A01 T00540004  RH  070%=      5-min Rain = 0
KLE1 190138Z 33023G32KT 05/00 A298 RMK A01 T00540004  RH  070%=      5-min Rain = 0
KLE1 190139Z 33027G32KT 05/01 A298 RMK A01 T00540005  RH  070%=      5-min Rain = 0
KLE1 190140Z 33022G29KT 05/00 A298 RMK A01 T00540004  RH  070%=      5-min Rain = 0
KLE1 190141Z 33022G27KT 05/00 A298 RMK A01 T00540004  RH  070%=      5-min Rain = 0
KLE1 190142Z 34019KT 05/00 A2981 RMK A01 T00530004  RH  070%=      5-min Rain = 0
KLE1 190143Z 34021G27KT 05/00 A2981 RMK A01 T00540004  RH  070%=      5-min Rain = 0
KLE1 190144Z 33020G25KT 05/00 A2981 RMK A01 T00540004  RH  070%=      5-min Rain = 0
KLE1 190145Z 33019G24KT 05/00 A2981 RMK A01 T00540004  RH  070%=      5-min Rain = 0
KLE1 190146Z 33020KT 05/00 A2981 RMK A01 T00540004  RH  070%=      5-min Rain = 0
KLE1 190147Z 33019G24KT 05/00 A2981 RMK A01 T00540004  RH  070%=      5-min Rain = 0
KLE1 190148Z 33024G30KT 05/00 A2981 RMK A01 T00540004  RH  070%=      5-min Rain = 0
KLE1 190149Z 33024G29KT 05/00 A2981 RMK A01 T00530004  RH  071%=      5-min Rain = 0
KLE1 190150Z 33026G31KT 05/00 A2981 RMK A01 T00530004  RH  071%=      5-min Rain = 0
KLE1 190151Z 33026G31KT 05/00 A2982 RMK A01 T00520004  RH  071%=      5-min Rain = 0
KLE1 190152Z 33021G28KT 05/01 A2982 RMK A01 T00520005  RH  071%=      5-min Rain = 0
KLE1 190153Z 33023G33KT 05/00 A2982 RMK A01 T00520004  RH  071%=      5-min Rain = 0
KLE1 190154Z 33025G30KT 05/00 A2982 RMK A01 T00520004  RH  071%=      5-min Rain = 0
KLE1 190155Z 32025G32KT 05/01 A2982 RMK A01 T00520005  RH  072%=      5-min Rain = 0
KLE1 190156Z 33027G34KT 05/00 A2982 RMK A01 T00510004  RH  072%=      5-min Rain = 0
KLE1 190157Z 33030KT 05/01 A2982 RMK A01 T00510005  RH  072%=      5-min Rain = 0
KLE1 190158Z 34028G33KT 05/01 A2982 RMK A01 T00510005  RH  072%=      5-min Rain = 0
KLE1 190159Z 34022G27KT 05/01 A2982 RMK A01 T00510005  RH  072%=      5-min Rain = 0
KLE1 190200Z 34023G28KT 05/01 A2982 RMK A01 T00520005  RH  072%=      5-min Rain = 0
KLE1 190201Z 34024KT 05/00 A2982 RMK A01 T00510004  RH  072%=      5-min Rain = 0
KLE1 190202Z 33026G31KT 05/00 A2982 RMK A01 T00510004  RH  072%=      5-min Rain = 0
KLE1 190203Z 33024KT 05/00 A2982 RMK A01 T00510004  RH  072%=      5-min Rain = 0
KLE1 190204Z 33022G27KT 05/00 A2982 RMK A01 T00500004  RH  072%=      5-min Rain = 0
KLE1 190205Z 34024KT 05/00 A2982 RMK A01 T00500004  RH  072%=      5-min Rain = 0
KLE1 190206Z 33023G29KT 05/00 A2982 RMK A01 T00500004  RH  072%=      5-min Rain = 0
KLE1 190207Z 32026G32KT 05/00 A2982 RMK A01 T00500004  RH  072%=      5-min Rain = 0
KLE1 190208Z 34024G31KT 05/00 A2983 RMK A01 T00490004  RH  072%=      5-min Rain = 0
KLE1 190209Z 33023G28KT 05/00 A2983 RMK A01 T00490003  RH  072%=      5-min Rain = 0
KLE1 190210Z 32023KT 05/00 A2983 RMK A01 T00490004  RH  072%=      5-min Rain = 0
KLE1 190211Z 33024KT 05/00 A2983 RMK A01 T00490003  RH  072%=      5-min Rain = 0
KLE1 190212Z 33023KT 05/00 A2983 RMK A01 T00480003  RH  072%=      5-min Rain = 0
KLE1 190213Z 33025G32KT 05/00 A2983 RMK A01 T00480003  RH  072%=      5-min Rain = 0
KLE1 190214Z 33027KT 05/00 A2983 RMK A01 T00480002  RH  072%=      5-min Rain = 0
KLE1 190215Z 33022G27KT 05/00 A2984 RMK A01 T00470002  RH  073%=      5-min Rain = 0
KLE1 190216Z 33025G30KT 05/00 A2984 RMK A01 T00470003  RH  073%=      5-min Rain = 0
KLE1 190217Z 33025KT 05/00 A2984 RMK A01 T00470002  RH  073%=      5-min Rain = 0
KLE1 190218Z 33025KT 05/00 A2984 RMK A01 T00460002  RH  073%=      5-min Rain = 0
KLE1 190219Z 34023G29KT 05/00 A2984 RMK A01 T00460002  RH  073%=      5-min Rain = 0
KLE1 190220Z 34020KT 05/00 A2985 RMK A01 T00460002  RH  073%=      5-min Rain = 0
KLE1 190221Z 33023G32KT 05/00 A2985 RMK A01 T00460002  RH  073%=      5-min Rain = 0
KLE1 190222Z 33025G30KT 05/00 A2985 RMK A01 T00460002  RH  073%=      5-min Rain = 0
KLE1 190223Z 33027KT 05/00 A2985 RMK A01 T00460001  RH  073%=      5-min Rain = 0
KLE1 190224Z 34029G36KT 05/00 A2985 RMK A01 T00460001  RH  073%=      5-min Rain = 0
KLE1 190225Z 33031KT 05/00 A2985 RMK A01 T00460001  RH  073%=      5-min Rain = 0
KLE1 190226Z 34028G33KT 05/00 A2985 RMK A01 T00460001  RH  072%=      5-min Rain = 0
KLE1 190227Z 34027KT 05/00 A2985 RMK A01 T00460000  RH  072%=      5-min Rain = 0
KLE1 190228Z 33022G29KT 05/00 A2985 RMK A01 T004600-0  RH  072%=      5-min Rain = 0
KLE1 190229Z 34026G33KT 05/00 A2985 RMK A01 T004600-0  RH  072%=      5-min Rain = 0
KLE1 190230Z 34026G31KT 05/00 A2985 RMK A01 T004600-0  RH  072%=      5-min Rain = 0
KLE1 190231Z 33020KT 05/00 A2985 RMK A01 T004600-0  RH  072%=      5-min Rain = 0
KLE1 190232Z 33022KT 05/00 A2985 RMK A01 T004600-0  RH  072%=      5-min Rain = 0
KLE1 190233Z 34025KT 05/00 A2985 RMK A01 T004600-0  RH  072%=      5-min Rain = 0
KLE1 190234Z 34024G29KT 05/M00 A2985 RMK A01 T00461001  RH  072%=      5-min Rain = 0
KLE1 190235Z 33021KT 05/M00 A2985 RMK A01 T00461001  RH  072%=      5-min Rain = 0
KLE1 190236Z 33018G24KT 05/00 A2985 RMK A01 T00470000  RH  072%=      5-min Rain = 0
KLE1 190237Z 33029G34KT 05/M00 A2985 RMK A01 T00461001  RH  072%=      5-min Rain = 0
KLE1 190238Z 33023G29KT 05/M00 A2985 RMK A01 T00461002  RH  071%=      5-min Rain = 0
KLE1 190239Z 34025G31KT 05/M00 A2985 RMK A01 T00451002  RH  071%=      5-min Rain = 0
KLE1 190240Z 34023KT 05/M00 A2985 RMK A01 T00451002  RH  071%=      5-min Rain = 0
KLE1 190241Z 33025KT 05/M00 A2985 RMK A01 T00451003  RH  071%=      5-min Rain = 0
KLE1 190242Z 33023G29KT 05/M00 A2985 RMK A01 T00451004  RH  071%=      5-min Rain = 0
KLE1 190243Z 33023G31KT 05/M00 A2985 RMK A01 T00451003  RH  071%=      5-min Rain = 0
KLE1 190244Z 33032KT 05/M00 A2985 RMK A01 T00451004  RH  070%=      5-min Rain = 0
KLE1 190245Z 34025G31KT 05/M00 A2985 RMK A01 T00451004  RH  070%=      5-min Rain = 0
KLE1 190246Z 34023KT 05/M00 A2986 RMK A01 T00451004  RH  070%=      5-min Rain = 0
KLE1 190247Z 34025G38KT 05/M01 A2986 RMK A01 T00451005  RH  070%=      5-min Rain = 0
KLE1 190248Z 35027KT 05/M01 A2986 RMK A01 T00451005  RH  070%=      5-min Rain = 0
KLE1 190249Z 34025G30KT 04/M01 A2986 RMK A01 T00441006  RH  070%=      5-min Rain = 0
KLE1 190250Z 33020KT 05/M01 A2986 RMK A01 T00451006  RH  070%=      5-min Rain = 0
KLE1 190251Z 34023G30KT 05/M01 A2986 RMK A01 T00451005  RH  070%=      5-min Rain = 0
KLE1 190252Z 33026G33KT 05/M01 A2986 RMK A01 T00451006  RH  070%=      5-min Rain = 0
KLE1 190253Z 33025KT 04/M01 A2986 RMK A01 T00441007  RH  069%=      5-min Rain = 0
KLE1 190254Z 34027G32KT 04/M01 A2986 RMK A01 T00441007  RH  069%=      5-min Rain = 0
KLE1 190255Z 34021G27KT 04/M01 A2987 RMK A01 T00441007  RH  069%=      5-min Rain = 0
KLE1 190256Z 34024G31KT 04/M01 A2987 RMK A01 T00441007  RH  069%=      5-min Rain = 0
KLE1 190257Z 34027G33KT 04/M01 A2987 RMK A01 T00441008  RH  069%=      5-min Rain = 0
KLE1 190258Z 34026G31KT 04/M01 A2987 RMK A01 T00441008  RH  069%=      5-min Rain = 0
KLE1 190259Z 34022G27KT 04/M01 A2987 RMK A01 T00441008  RH  069%=      5-min Rain = 0
KLE1 190300Z 34025KT 04/M01 A2987 RMK A01 T00441008  RH  069%=      5-min Rain = 0
KLE1 190301Z 33025G31KT 04/M01 A2987 RMK A01 T00431008  RH  069%=      5-min Rain = 0
KLE1 190302Z 34028KT 04/M01 A2987 RMK A01 T00431009  RH  069%=      5-min Rain = 0
KLE1 190303Z 33028KT 04/M01 A2987 RMK A01 T00431009  RH  069%=      5-min Rain = 0
KLE1 190304Z 33022G31KT 04/M01 A2987 RMK A01 T00431010  RH  069%=      5-min Rain = 0
KLE1 190305Z 33026KT 04/M01 A2987 RMK A01 T00421010  RH  069%=      5-min Rain = 0
KLE1 190306Z 34023G29KT 04/M01 A2987 RMK A01 T00421011  RH  068%=      5-min Rain = 0
KLE1 190307Z 33028KT 04/M01 A2987 RMK A01 T00411012  RH  068%=      5-min Rain = 0
KLE1 190308Z 34027KT 04/M01 A2987 RMK A01 T00411013  RH  068%=      5-min Rain = 0
KLE1 190309Z 34028G36KT 04/M01 A2987 RMK A01 T00411014  RH  068%=      5-min Rain = 0
KLE1 190310Z 33025KT 04/M01 A2987 RMK A01 T00411013  RH  068%=      5-min Rain = 0
KLE1 190311Z 34024KT 04/M01 A2987 RMK A01 T00411013  RH  068%=      5-min Rain = 0
KLE1 190312Z 33025KT 04/M01 A2987 RMK A01 T00411014  RH  067%=      5-min Rain = 0
KLE1 190313Z 33027G32KT 04/M02 A2987 RMK A01 T00411015  RH  067%=      5-min Rain = 0
KLE1 190314Z 34025G30KT 04/M02 A2988 RMK A01 T00411015  RH  067%=      5-min Rain = 0
KLE1 190315Z 33023KT 04/M02 A2988 RMK A01 T00411015  RH  067%=      5-min Rain = 0
KLE1 190316Z 33030G36KT 04/M02 A2988 RMK A01 T00411016  RH  066%=      5-min Rain = 0
KLE1 190317Z 33029KT 04/M02 A2988 RMK A01 T00411018  RH  066%=      5-min Rain = 0
KLE1 190318Z 33031KT 04/M02 A2988 RMK A01 T00401019  RH  065%=      5-min Rain = 0
KLE1 190319Z 33025KT 04/M02 A2988 RMK A01 T00401019  RH  065%=      5-min Rain = 0
KLE1 190320Z 34031G42KT 04/M02 A2988 RMK A01 T00401019  RH  065%=      5-min Rain = 0
KLE1 190321Z 34035G43KT 04/M02 A2988 RMK A01 T00401020  RH  065%=      5-min Rain = 0
KLE1 190322Z 34031G39KT 04/M02 A2988 RMK A01 T00401021  RH  065%=      5-min Rain = 0
KLE1 190323Z 34025G31KT 04/M02 A2988 RMK A01 T00401021  RH  065%=      5-min Rain = 0
KLE1 190324Z 34023G28KT 04/M02 A2988 RMK A01 T00401021  RH  065%=      5-min Rain = 0
KLE1 190325Z 34023G29KT 04/M02 A2988 RMK A01 T00401021  RH  065%=      5-min Rain = 0
KLE1 190326Z 33021KT 04/M02 A2988 RMK A01 T00391020  RH  065%=      5-min Rain = 0
KLE1 190327Z 34020KT 04/M02 A2989 RMK A01 T00401020  RH  065%=      5-min Rain = 0
KLE1 190328Z 33019KT 04/M02 A2989 RMK A01 T00401019  RH  065%=      5-min Rain = 0
KLE1 190329Z 32017G22KT 04/M02 A2989 RMK A01 T00401019  RH  066%=      5-min Rain = 0
KLE1 190330Z 32022KT 04/M02 A2989 RMK A01 T00391018  RH  066%=      5-min Rain = 0
KLE1 190331Z 33027G33KT 04/M02 A2989 RMK A01 T00391018  RH  066%=      5-min Rain = 0
KLE1 190332Z 33023G29KT 04/M02 A2989 RMK A01 T00381018  RH  067%=      5-min Rain = 0
KLE1 190333Z 33030G35KT 04/M02 A2989 RMK A01 T00371019  RH  067%=      5-min Rain = 0
KLE1 190334Z 33033G40KT 04/M02 A2989 RMK A01 T00371020  RH  066%=      5-min Rain = 0
KLE1 190335Z 34027KT 04/M02 A2989 RMK A01 T00361021  RH  066%=      5-min Rain = 0
KLE1 190336Z 33021KT 04/M02 A299 RMK A01 T00361021  RH  066%=      5-min Rain = 0
KLE1 190337Z 34024G29KT 04/M02 A299 RMK A01 T00361021  RH  066%=      5-min Rain = 0
KLE1 190338Z 34026G33KT 04/M02 A299 RMK A01 T00361022  RH  066%=      5-min Rain = 0
KLE1 190339Z 34028G33KT 04/M02 A299 RMK A01 T00361023  RH  065%=      5-min Rain = 0
KLE1 190340Z 34025KT 04/M02 A299 RMK A01 T00361023  RH  065%=      5-min Rain = 0
KLE1 190341Z 34021KT 04/M02 A299 RMK A01 T00351024  RH  065%=      5-min Rain = 0
KLE1 190342Z 34020KT 04/M02 A2991 RMK A01 T00351024  RH  065%=      5-min Rain = 0
KLE1 190343Z 33021G33KT 04/M02 A2991 RMK A01 T00351024  RH  065%=      5-min Rain = 0
KLE1 190344Z 34026KT 04/M02 A2991 RMK A01 T00351024  RH  065%=      5-min Rain = 0
KLE1 190345Z 34030G36KT 04/M02 A2991 RMK A01 T00351024  RH  065%=      5-min Rain = 0
KLE1 190346Z 33023G31KT 04/M02 A2991 RMK A01 T00351024  RH  065%=      5-min Rain = 0
KLE1 190347Z 34025G34KT 04/M02 A2991 RMK A01 T00351024  RH  065%=      5-min Rain = 0
KLE1 190348Z 34021G26KT 04/M02 A2992 RMK A01 T00351024  RH  065%=      5-min Rain = 0
KLE1 190349Z 33020G26KT 03/M02 A2992 RMK A01 T00341024  RH  066%=      5-min Rain = 0
KLE1 190350Z 34024G32KT 04/M02 A2992 RMK A01 T00351023  RH  066%=      5-min Rain = 0
KLE1 190351Z 32020G29KT 03/M02 A2992 RMK A01 T00341023  RH  066%=      5-min Rain = 0
KLE1 190352Z 33021KT 04/M02 A2992 RMK A01 T00351023  RH  066%=      5-min Rain = 0
KLE1 190353Z 33021G28KT 04/M02 A2992 RMK A01 T00351023  RH  066%=      5-min Rain = 0
KLE1 190354Z 33021KT 03/M02 A2992 RMK A01 T00341023  RH  066%=      5-min Rain = 0
KLE1 190355Z 33023KT 04/M02 A2992 RMK A01 T00351022  RH  066%=      5-min Rain = 0
KLE1 190356Z 33022G27KT 04/M02 A2992 RMK A01 T00351022  RH  066%=      5-min Rain = 0
KLE1 190357Z 33023KT 03/M02 A2993 RMK A01 T00341022  RH  066%=      5-min Rain = 0
KLE1 190358Z 33022G28KT 04/M02 A2993 RMK A01 T00351022  RH  066%=      5-min Rain = 0
KLE1 190359Z 34024KT 03/M02 A2992 RMK A01 T00341022  RH  067%=      5-min Rain = 0
KLE1 190400Z 33023KT 03/M02 A2993 RMK A01 T00341023  RH  067%=      5-min Rain = 0
KLE1 190401Z 34022KT 03/M02 A2993 RMK A01 T00341022  RH  067%=      5-min Rain = 0
KLE1 190402Z 33022KT 03/M02 A2993 RMK A01 T00341022  RH  067%=      5-min Rain = 0
KLE1 190403Z 33019G25KT 03/M02 A2993 RMK A01 T00341022  RH  067%=      5-min Rain = 0
KLE1 190404Z 34019KT 03/M02 A2993 RMK A01 T00341022  RH  067%=      5-min Rain = 0
KLE1 190405Z 34023KT 03/M02 A2993 RMK A01 T00341022  RH  067%=      5-min Rain = 0
KLE1 190406Z 33025G36KT 03/M02 A2993 RMK A01 T00341023  RH  066%=      5-min Rain = 0
KLE1 190407Z 33028G35KT 03/M02 A2993 RMK A01 T00341023  RH  066%=      5-min Rain = 0
KLE1 190408Z 34025G33KT 03/M02 A2993 RMK A01 T00341023  RH  066%=      5-min Rain = 0
KLE1 190409Z 33025G30KT 03/M02 A2993 RMK A01 T00341023  RH  066%=      5-min Rain = 0
KLE1 190410Z 33025G33KT 03/M02 A2994 RMK A01 T00341024  RH  066%=      5-min Rain = 0
KLE1 190411Z 33022KT 03/M02 A2994 RMK A01 T00341024  RH  066%=      5-min Rain = 0
KLE1 190412Z 33024G34KT 03/M02 A2994 RMK A01 T00341024  RH  066%=      5-min Rain = 0
KLE1 190413Z 34026G37KT 03/M02 A2994 RMK A01 T00341024  RH  066%=      5-min Rain = 0
KLE1 190414Z 34025KT 03/M03 A2994 RMK A01 T00331025  RH  066%=      5-min Rain = 0
KLE1 190415Z 34024G30KT 03/M03 A2994 RMK A01 T00331025  RH  066%=      5-min Rain = 0
KLE1 190416Z 33025G33KT 03/M03 A2994 RMK A01 T00331025  RH  066%=      5-min Rain = 0
KLE1 190417Z 34025G31KT 03/M03 A2994 RMK A01 T00331025  RH  066%=      5-min Rain = 0
KLE1 190418Z 33027G34KT 03/M03 A2994 RMK A01 T00331026  RH  066%=      5-min Rain = 0
KLE1 190419Z 34031G37KT 03/M03 A2994 RMK A01 T00331025  RH  066%=      5-min Rain = 0
KLE1 190420Z 34033G38KT 03/M03 A2994 RMK A01 T00331025  RH  066%=      5-min Rain = 0
KLE1 190421Z 34024G30KT 03/M02 A2994 RMK A01 T00321024  RH  066%=      5-min Rain = 0
KLE1 190422Z 34025G32KT 03/M02 A2994 RMK A01 T00331024  RH  067%=      5-min Rain = 0
KLE1 190423Z 33026G33KT 03/M02 A2994 RMK A01 T00321024  RH  067%=      5-min Rain = 0
KLE1 190424Z 33026G31KT 03/M02 A2994 RMK A01 T00321023  RH  067%=      5-min Rain = 0
KLE1 190425Z 33028G33KT 03/M02 A2994 RMK A01 T00321023  RH  067%=      5-min Rain = 0
KLE1 190426Z 35026KT 03/M02 A2994 RMK A01 T00311023  RH  068%=      5-min Rain = 0
KLE1 190427Z 34023KT 03/M02 A2995 RMK A01 T00311023  RH  068%=      5-min Rain = 0
KLE1 190428Z 33021G27KT 03/M02 A2995 RMK A01 T00301023  RH  068%=      5-min Rain = 0
KLE1 190429Z 33025G30KT 03/M02 A2995 RMK A01 T00301023  RH  068%=      5-min Rain = 0
KLE1 190430Z 33025KT 03/M02 A2995 RMK A01 T00311022  RH  068%=      5-min Rain = 0
KLE1 190431Z 35022G28KT 03/M02 A2995 RMK A01 T00301022  RH  068%=      5-min Rain = 0
KLE1 190432Z 34020KT 03/M02 A2995 RMK A01 T00301022  RH  069%=      5-min Rain = 0
KLE1 190433Z 33021KT 03/M02 A2995 RMK A01 T00301022  RH  069%=      5-min Rain = 0
KLE1 190434Z 33028G34KT 03/M02 A2995 RMK A01 T00291022  RH  069%=      5-min Rain = 0
KLE1 190435Z 34027G34KT 03/M02 A2995 RMK A01 T00291021  RH  070%=      5-min Rain = 0
KLE1 190436Z 34027G32KT 03/M02 A2995 RMK A01 T00281020  RH  071%=      5-min Rain = 0
KLE1 190437Z 34020KT 03/M02 A2996 RMK A01 T00271018  RH  072%=      5-min Rain = 0
KLE1 190438Z 33019G25KT 03/M02 A2996 RMK A01 T00261017  RH  073%=      5-min Rain = 0
KLE1 190439Z 33019G24KT 02/M02 A2996 RMK A01 T00241016  RH  075%=      5-min Rain = 0
KLE1 190440Z 33017KT 02/M01 A2996 RMK A01 T00231014  RH  076%=      5-min Rain = 0
KLE1 190441Z 33022G32KT 02/M01 A2996 RMK A01 T00221012  RH  078%=      5-min Rain = 0
KLE1 190442Z 34027G34KT 02/M01 A2996 RMK A01 T00211013  RH  078%=      5-min Rain = 0
KLE1 190443Z 33019KT 02/M01 A2996 RMK A01 T00211013  RH  079%=      5-min Rain = 0
KLE1 190444Z 33021G27KT 02/M01 A2996 RMK A01 T00201012  RH  080%=      5-min Rain = 0
KLE1 190445Z 33021KT 02/M01 A2996 RMK A01 T00201013  RH  079%=      5-min Rain = 0
KLE1 190446Z 34020KT 02/M01 A2996 RMK A01 T00211014  RH  078%=      5-min Rain = 0
KLE1 190447Z 33018KT 02/M01 A2996 RMK A01 T00211013  RH  078%=      5-min Rain = 0
KLE1 190448Z 33025G37KT 02/M01 A2996 RMK A01 T00211013  RH  078%=      5-min Rain = 0
KLE1 190449Z 34027G34KT 02/M02 A2996 RMK A01 T00211015  RH  077%=      5-min Rain = 0
KLE1 190450Z 33024KT 02/M02 A2996 RMK A01 T00221016  RH  076%=      5-min Rain = 0
KLE1 190451Z 33022KT 02/M02 A2997 RMK A01 T00231016  RH  076%=      5-min Rain = 0
KLE1 190452Z 32021G26KT 02/M02 A2997 RMK A01 T00231016  RH  075%=      5-min Rain = 0
KLE1 190453Z 32019G24KT 02/M02 A2997 RMK A01 T00231016  RH  075%=      5-min Rain = 0
KLE1 190454Z 32022KT 02/M02 A2997 RMK A01 T00231017  RH  075%=      5-min Rain = 0
KLE1 190455Z 33020KT 02/M02 A2997 RMK A01 T00231017  RH  075%=      5-min Rain = 0
KLE1 190456Z 33022KT 02/M02 A2997 RMK A01 T00231017  RH  075%=      5-min Rain = 0
KLE1 190457Z 33024G33KT 02/M02 A2997 RMK A01 T00231017  RH  074%=      5-min Rain = 0
KLE1 190458Z 34024G32KT 02/M02 A2997 RMK A01 T00241019  RH  074%=      5-min Rain = 0
KLE1 190459Z 33018G23KT 02/M02 A2998 RMK A01 T00241019  RH  073%=      5-min Rain = 0
KLE1 190500Z 34023KT 02/M02 A2998 RMK A01 T00241018  RH  074%=      5-min Rain = 0
KLE1 190501Z 34022KT 02/M02 A2998 RMK A01 T00241019  RH  073%=      5-min Rain = 0
KLE1 190502Z 34020KT 02/M02 A2998 RMK A01 T00241020  RH  073%=      5-min Rain = 0
KLE1 190503Z 33021G29KT 02/M02 A2998 RMK A01 T00231021  RH  073%=      5-min Rain = 0
KLE1 190504Z 34025G31KT 02/M02 A2998 RMK A01 T00241021  RH  072%=      5-min Rain = 0
KLE1 190505Z 34020G26KT 02/M02 A2998 RMK A01 T00241022  RH  072%=      5-min Rain = 0
KLE1 190506Z 34022G31KT 02/M02 A2998 RMK A01 T00241021  RH  072%=      5-min Rain = 0
KLE1 190507Z 34026G38KT 02/M02 A2998 RMK A01 T00241023  RH  071%=      5-min Rain = 0
KLE1 190508Z 35029G36KT 02/M02 A2998 RMK A01 T00241024  RH  070%=      5-min Rain = 0
KLE1 190509Z 34023G29KT 02/M02 A2998 RMK A01 T00241024  RH  070%=      5-min Rain = 0
KLE1 190510Z 34026KT 03/M02 A2998 RMK A01 T00251024  RH  070%=      5-min Rain = 0
KLE1 190511Z 34021G28KT 02/M03 A2998 RMK A01 T00241025  RH  070%=      5-min Rain = 0
KLE1 190512Z 34021G30KT 02/M03 A2998 RMK A01 T00241025  RH  070%=      5-min Rain = 0
KLE1 190513Z 34025G30KT 02/M03 A2998 RMK A01 T00241025  RH  070%=      5-min Rain = 0
KLE1 190514Z 34024KT 03/M03 A2998 RMK A01 T00251026  RH  069%=      5-min Rain = 0
KLE1 190515Z 34023G28KT 03/M03 A2998 RMK A01 T00251026  RH  069%=      5-min Rain = 0
KLE1 190516Z 34018G23KT 03/M03 A2998 RMK A01 T00251026  RH  069%=      5-min Rain = 0
KLE1 190517Z 34025G31KT 03/M03 A2998 RMK A01 T00251025  RH  069%=      5-min Rain = 0
KLE1 190518Z 35031G36KT 03/M03 A2998 RMK A01 T00251027  RH  069%=      5-min Rain = 0
KLE1 190519Z 34020KT 03/M03 A2999 RMK A01 T00251027  RH  068%=      5-min Rain = 0
KLE1 190520Z 34018G23KT 03/M03 A2999 RMK A01 T00251026  RH  069%=      5-min Rain = 0
KLE1 190521Z 33021G26KT 03/M03 A2999 RMK A01 T00251025  RH  069%=      5-min Rain = 0
KLE1 190522Z 33024KT 03/M03 A2999 RMK A01 T00251025  RH  069%=      5-min Rain = 0
KLE1 190523Z 34023KT 02/M03 A2999 RMK A01 T00241026  RH  069%=      5-min Rain = 0
KLE1 190524Z 34019KT 03/M03 A2999 RMK A01 T00251026  RH  069%=      5-min Rain = 0
KLE1 190525Z 33014KT 02/M03 A2999 RMK A01 T00241026  RH  069%=      5-min Rain = 0
KLE1 190526Z 33014G19KT 02/M03 A30 RMK A01 T00241025  RH  070%=      5-min Rain = 0
KLE1 190527Z 34020KT 02/M03 A30 RMK A01 T00241025  RH  070%=      5-min Rain = 0
KLE1 190528Z 33024KT 02/M03 A2999 RMK A01 T00241025  RH  070%=      5-min Rain = 0
KLE1 190529Z 34025G31KT 02/M03 A30 RMK A01 T00241026  RH  070%=      5-min Rain = 0
KLE1 190530Z 33023G31KT 02/M03 A30 RMK A01 T00241027  RH  069%=      5-min Rain = 0
KLE1 190531Z 34019KT 02/M03 A30 RMK A01 T00241027  RH  069%=      5-min Rain = 0
KLE1 190532Z 35019G25KT 02/M03 A30 RMK A01 T00241026  RH  070%=      5-min Rain = 0
KLE1 190533Z 34018G27KT 02/M03 A30 RMK A01 T00241027  RH  069%=      5-min Rain = 0
KLE1 190534Z 34027G38KT 02/M03 A30 RMK A01 T00241027  RH  069%=      5-min Rain = 0
KLE1 190535Z 35025KT 02/M03 A30 RMK A01 T00241028  RH  069%=      5-min Rain = 0
KLE1 190536Z 35025KT 02/M03 A30 RMK A01 T00241028  RH  069%=      5-min Rain = 0
KLE1 190537Z 34021KT 02/M03 A30 RMK A01 T00241028  RH  069%=      5-min Rain = 0
KLE1 190538Z 35018G23KT 02/M03 A30 RMK A01 T00241028  RH  069%=      5-min Rain = 0
KLE1 190539Z 33017G24KT 02/M03 A3001 RMK A01 T00241027  RH  069%=      5-min Rain = 0
KLE1 190540Z 34026G33KT 02/M03 A30 RMK A01 T00231028  RH  069%=      5-min Rain = 0
KLE1 190541Z 34024KT 02/M03 A3001 RMK A01 T00231029  RH  069%=      5-min Rain = 0
KLE1 190542Z 34023KT 02/M03 A3001 RMK A01 T00241028  RH  068%=      5-min Rain = 0
KLE1 190543Z 33022G30KT 02/M03 A3001 RMK A01 T00241028  RH  069%=      5-min Rain = 0
KLE1 190544Z 34024KT 02/M03 A3001 RMK A01 T00241028  RH  068%=      5-min Rain = 0
KLE1 190545Z 33025G30KT 02/M03 A3001 RMK A01 T00241029  RH  068%=      5-min Rain = 0
KLE1 190546Z 34024KT 03/M03 A3001 RMK A01 T00251029  RH  068%=      5-min Rain = 0
KLE1 190547Z 34017G22KT 02/M03 A3001 RMK A01 T00241029  RH  068%=      5-min Rain = 0
KLE1 190548Z 34013KT 02/M03 A3002 RMK A01 T00241028  RH  068%=      5-min Rain = 0
KLE1 190549Z 34020G25KT 02/M03 A3002 RMK A01 T00241027  RH  069%=      5-min Rain = 0
KLE1 190550Z 34016KT 02/M03 A3002 RMK A01 T00241027  RH  069%=      5-min Rain = 0
KLE1 190551Z 33016KT 02/M03 A3002 RMK A01 T00241028  RH  068%=      5-min Rain = 0
KLE1 190552Z 33015KT 03/M03 A3002 RMK A01 T00251027  RH  068%=      5-min Rain = 0
KLE1 190553Z 33010KT 02/M03 A3002 RMK A01 T00241028  RH  069%=      5-min Rain = 0
KLE1 190554Z 33014G19KT 02/M03 A3002 RMK A01 T00241027  RH  069%=      5-min Rain = 0
KLE1 190555Z 33012G18KT 03/M03 A3002 RMK A01 T00251027  RH  069%=      5-min Rain = 0
KLE1 190556Z 34014KT 03/M03 A3002 RMK A01 T00251026  RH  069%=      5-min Rain = 0
KLE1 190557Z 34016KT 03/M03 A3003 RMK A01 T00251026  RH  069%=      5-min Rain = 0
KLE1 190558Z 33018KT 03/M03 A3003 RMK A01 T00251026  RH  069%=      5-min Rain = 0
KLE1 190559Z 34016KT 03/M03 A3003 RMK A01 T00261027  RH  068%=      5-min Rain = 0

Page generated in 0.1441 seconds.